Observation data for Persimmon Gap on 03/10/2018      Previous  Date  Next       Current Mesonet Observations  Soil Data  Daily Summary Page  Observations in Plain Language
KPG1 100600Z 00007KT 19/04 A2986 RMK A01 T01900039  RH  037%=      5-min Rain = 0
KPG1 100601Z 35006KT 19/04 A2986 RMK A01 T01890039  RH  037%=      5-min Rain = 0
KPG1 100602Z 36005KT 19/04 A2986 RMK A01 T01870035  RH  036%=      5-min Rain = 0
KPG1 100603Z 36005KT 18/03 A2986 RMK A01 T01840034  RH  037%=      5-min Rain = 0
KPG1 100604Z 02005KT 18/03 A2986 RMK A01 T01830034  RH  037%=      5-min Rain = 0
KPG1 100605Z 02005KT 18/04 A2986 RMK A01 T01830035  RH  037%=      5-min Rain = 0
KPG1 100606Z 03005KT 19/04 A2986 RMK A01 T01850035  RH  037%=      5-min Rain = 0
KPG1 100607Z 03005KT 18/03 A2986 RMK A01 T01840034  RH  037%=      5-min Rain = 0
KPG1 100608Z 03005KT 18/04 A2986 RMK A01 T01840035  RH  037%=      5-min Rain = 0
KPG1 100609Z 04005KT 18/04 A2986 RMK A01 T01840035  RH  037%=      5-min Rain = 0
KPG1 100610Z 03005KT 18/04 A2986 RMK A01 T01840035  RH  037%=      5-min Rain = 0
KPG1 100611Z 03005KT 18/04 A2986 RMK A01 T01840036  RH  037%=      5-min Rain = 0
KPG1 100612Z 03005KT 18/04 A2986 RMK A01 T01840035  RH  037%=      5-min Rain = 0
KPG1 100613Z 02005KT 18/04 A2986 RMK A01 T01840035  RH  037%=      5-min Rain = 0
KPG1 100614Z 01004KT 18/03 A2986 RMK A01 T01830034  RH  037%=      5-min Rain = 0
KPG1 100615Z 01004KT 18/04 A2986 RMK A01 T01810035  RH  038%=      5-min Rain = 0
KPG1 100616Z 01005KT 18/04 A2986 RMK A01 T01820039  RH  039%=      5-min Rain = 0
KPG1 100617Z 35005KT 18/04 A2986 RMK A01 T01840042  RH  039%=      5-min Rain = 0
KPG1 100618Z 35005KT 19/04 A2986 RMK A01 T01870044  RH  039%=      5-min Rain = 0
KPG1 100619Z 34005KT 19/05 A2986 RMK A01 T01910046  RH  038%=      5-min Rain = 0
KPG1 100620Z 35005KT 20/05 A2986 RMK A01 T01950046  RH  037%=      5-min Rain = 0
KPG1 100621Z 35004KT 20/05 A2986 RMK A01 T01980046  RH  037%=      5-min Rain = 0
KPG1 100622Z 36004KT 20/05 A2986 RMK A01 T01990046  RH  037%=      5-min Rain = 0
KPG1 100623Z 36004KT 20/05 A2986 RMK A01 T01990045  RH  036%=      5-min Rain = 0
KPG1 100624Z 36003KT 20/05 A2986 RMK A01 T01980045  RH  036%=      5-min Rain = 0
KPG1 100625Z 36003KT 20/04 A2986 RMK A01 T01970043  RH  036%=      5-min Rain = 0
KPG1 100626Z 01003KT 19/04 A2986 RMK A01 T01920039  RH  036%=      5-min Rain = 0
KPG1 100627Z 01003KT 19/04 A2986 RMK A01 T01890040  RH  037%=      5-min Rain = 0
KPG1 100628Z 02003KT 19/04 A2986 RMK A01 T01880042  RH  038%=      5-min Rain = 0
KPG1 100629Z 02004KT 19/04 A2986 RMK A01 T01880041  RH  038%=      5-min Rain = 0
KPG1 100630Z 04003KT 19/04 A2986 RMK A01 T01880041  RH  038%=      5-min Rain = 0
KPG1 100631Z 03004KT 19/04 A2986 RMK A01 T01860039  RH  038%=      5-min Rain = 0
KPG1 100632Z 03004KT 18/04 A2986 RMK A01 T01830038  RH  038%=      5-min Rain = 0
KPG1 100633Z 03004KT 18/04 A2986 RMK A01 T01810037  RH  038%=      5-min Rain = 0
KPG1 100634Z 03004KT 18/04 A2986 RMK A01 T01790037  RH  039%=      5-min Rain = 0
KPG1 100635Z 02003KT 18/04 A2986 RMK A01 T01780035  RH  039%=      5-min Rain = 0
KPG1 100636Z 01003KT 18/04 A2986 RMK A01 T01770036  RH  039%=      5-min Rain = 0
KPG1 100637Z 01004KT 18/04 A2986 RMK A01 T01770037  RH  039%=      5-min Rain = 0
KPG1 100638Z 02004KT 18/04 A2986 RMK A01 T01770037  RH  039%=      5-min Rain = 0
KPG1 100639Z 02003KT 18/04 A2986 RMK A01 T01770036  RH  039%=      5-min Rain = 0
KPG1 100640Z 36005KT 18/04 A2986 RMK A01 T01750035  RH  039%=      5-min Rain = 0
KPG1 100641Z 36006KT 18/04 A2986 RMK A01 T01750037  RH  040%=      5-min Rain = 0
KPG1 100642Z 35006KT 18/04 A2986 RMK A01 T01780040  RH  040%=      5-min Rain = 0
KPG1 100643Z 35006KT 18/04 A2986 RMK A01 T01830043  RH  039%=      5-min Rain = 0
KPG1 100644Z 35005KT 19/04 A2986 RMK A01 T01860043  RH  039%=      5-min Rain = 0
KPG1 100645Z 35006KT 19/04 A2986 RMK A01 T01880043  RH  038%=      5-min Rain = 0
KPG1 100646Z 34006KT 19/04 A2986 RMK A01 T01900044  RH  038%=      5-min Rain = 0
KPG1 100647Z 35006KT 19/04 A2986 RMK A01 T01910043  RH  038%=      5-min Rain = 0
KPG1 100648Z 36006KT 19/04 A2986 RMK A01 T01920043  RH  037%=      5-min Rain = 0
KPG1 100649Z 00005KT 19/04 A2986 RMK A01 T01910041  RH  037%=      5-min Rain = 0
KPG1 100650Z 35006KT 19/04 A2986 RMK A01 T01880039  RH  037%=      5-min Rain = 0
KPG1 100651Z 36005KT 18/04 A2986 RMK A01 T01840037  RH  038%=      5-min Rain = 0
KPG1 100652Z 35005KT 18/04 A2986 RMK A01 T01800036  RH  038%=      5-min Rain = 0
KPG1 100653Z 35004KT 18/04 A2986 RMK A01 T01760036  RH  039%=      5-min Rain = 0
KPG1 100654Z 35004KT 17/04 A2986 RMK A01 T01740037  RH  040%=      5-min Rain = 0
KPG1 100655Z 35004KT 17/04 A2986 RMK A01 T01740039  RH  041%=      5-min Rain = 0
KPG1 100656Z 35004KT 17/04 A2986 RMK A01 T01740040  RH  041%=      5-min Rain = 0
KPG1 100657Z 36004KT 18/04 A2986 RMK A01 T01750041  RH  041%=      5-min Rain = 0
KPG1 100658Z 36004KT 18/04 A2986 RMK A01 T01760041  RH  040%=      5-min Rain = 0
KPG1 100659Z 36004KT 18/04 A2986 RMK A01 T01750037  RH  040%=      5-min Rain = 0
KPG1 100700Z 36004KT 17/04 A2986 RMK A01 T01720035  RH  040%=      5-min Rain = 0
KPG1 100701Z 35004KT 17/04 A2986 RMK A01 T01690035  RH  041%=      5-min Rain = 0
KPG1 100702Z 36004KT 17/04 A2986 RMK A01 T01680035  RH  041%=      5-min Rain = 0
KPG1 100703Z 01004KT 17/04 A2986 RMK A01 T01670036  RH  041%=      5-min Rain = 0
KPG1 100704Z 01004KT 17/04 A2986 RMK A01 T01670038  RH  042%=      5-min Rain = 0
KPG1 100705Z 01005KT 17/04 A2987 RMK A01 T01700041  RH  042%=      5-min Rain = 0
KPG1 100706Z 01004KT 17/04 A2987 RMK A01 T01740043  RH  042%=      5-min Rain = 0
KPG1 100707Z 01004KT 18/04 A2987 RMK A01 T01750043  RH  041%=      5-min Rain = 0
KPG1 100708Z 02003KT 18/04 A2987 RMK A01 T01760043  RH  041%=      5-min Rain = 0
KPG1 100709Z 01004KT 18/04 A2987 RMK A01 T01760044  RH  042%=      5-min Rain = 0
KPG1 100710Z 36005KT 18/05 A2987 RMK A01 T01770048  RH  042%=      5-min Rain = 0
KPG1 100711Z 36005KT 18/05 A2987 RMK A01 T01790048  RH  042%=      5-min Rain = 0
KPG1 100712Z 36005KT 18/05 A2987 RMK A01 T01810050  RH  042%=      5-min Rain = 0
KPG1 100713Z 36005KT 18/05 A2987 RMK A01 T01840053  RH  042%=      5-min Rain = 0
KPG1 100714Z 00004KT 19/05 A2987 RMK A01 T01870052  RH  041%=      5-min Rain = 0
KPG1 100715Z 02003KT 19/05 A2987 RMK A01 T01880052  RH  041%=      5-min Rain = 0
KPG1 100716Z 35005KT 19/05 A2987 RMK A01 T01880052  RH  041%=      5-min Rain = 0
KPG1 100717Z 34006KT 19/05 A2987 RMK A01 T01870049  RH  040%=      5-min Rain = 0
KPG1 100718Z 34007KT 19/05 A2987 RMK A01 T01870046  RH  040%=      5-min Rain = 0
KPG1 100719Z 35006KT 19/05 A2987 RMK A01 T01870046  RH  039%=      5-min Rain = 0
KPG1 100720Z 35005KT 19/05 A2987 RMK A01 T01870045  RH  039%=      5-min Rain = 0
KPG1 100721Z 34005KT 19/05 A2987 RMK A01 T01870045  RH  039%=      5-min Rain = 0
KPG1 100722Z 36003KT 19/04 A2987 RMK A01 T01850043  RH  039%=      5-min Rain = 0
KPG1 100723Z 02003KT 18/04 A2987 RMK A01 T01820042  RH  040%=      5-min Rain = 0
KPG1 100724Z 03003KT 18/05 A2987 RMK A01 T01810045  RH  041%=      5-min Rain = 0
KPG1 100725Z 02002KT 18/04 A2987 RMK A01 T01810044  RH  040%=      5-min Rain = 0
KPG1 100726Z 03002KT 18/03 A2987 RMK A01 T01800031  RH  037%=      5-min Rain = 0
KPG1 100727Z 01003KT 18/04 A2987 RMK A01 T01780037  RH  039%=      5-min Rain = 0
KPG1 100728Z 02003KT 18/04 A2987 RMK A01 T01760038  RH  040%=      5-min Rain = 0
KPG1 100729Z 03003KT 17/03 A2987 RMK A01 T01730032  RH  039%=      5-min Rain = 0
KPG1 100730Z 03003KT 17/03 A2987 RMK A01 T01710034  RH  040%=      5-min Rain = 0
KPG1 100731Z 01004KT 17/04 A2987 RMK A01 T01700042  RH  043%=      5-min Rain = 0
KPG1 100732Z 02003KT 17/05 A2987 RMK A01 T01730045  RH  043%=      5-min Rain = 0
KPG1 100733Z 01002KT 17/04 A2987 RMK A01 T01740043  RH  042%=      5-min Rain = 0
KPG1 100734Z 00004KT 17/04 A2987 RMK A01 T01730043  RH  042%=      5-min Rain = 0
KPG1 100735Z 00006KT 17/04 A2987 RMK A01 T01720043  RH  042%=      5-min Rain = 0
KPG1 100736Z 36006KT 17/05 A2987 RMK A01 T01720045  RH  043%=      5-min Rain = 0
KPG1 100737Z 36006KT 17/05 A2987 RMK A01 T01730046  RH  043%=      5-min Rain = 0
KPG1 100738Z 35007KT 17/05 A2987 RMK A01 T01740046  RH  043%=      5-min Rain = 0
KPG1 100739Z 36007KT 18/05 A2987 RMK A01 T01750045  RH  042%=      5-min Rain = 0
KPG1 100740Z 35007KT 18/05 A2987 RMK A01 T01750045  RH  042%=      5-min Rain = 0
KPG1 100741Z 35007KT 18/05 A2987 RMK A01 T01750045  RH  042%=      5-min Rain = 0
KPG1 100742Z 35007KT 18/04 A2987 RMK A01 T01760044  RH  042%=      5-min Rain = 0
KPG1 100743Z 35007KT 18/04 A2987 RMK A01 T01760044  RH  041%=      5-min Rain = 0
KPG1 100744Z 35007KT 18/04 A2987 RMK A01 T01770043  RH  041%=      5-min Rain = 0
KPG1 100745Z 35007KT 18/04 A2987 RMK A01 T01770043  RH  041%=      5-min Rain = 0
KPG1 100746Z 35006KT 18/04 A2987 RMK A01 T01760042  RH  041%=      5-min Rain = 0
KPG1 100747Z 36006KT 18/04 A2987 RMK A01 T01750042  RH  041%=      5-min Rain = 0
KPG1 100748Z 35005KT 17/04 A2987 RMK A01 T01740041  RH  041%=      5-min Rain = 0
KPG1 100749Z 00005KT 17/04 A2987 RMK A01 T01710040  RH  042%=      5-min Rain = 0
KPG1 100750Z 03003KT 17/04 A2987 RMK A01 T01680037  RH  042%=      5-min Rain = 0
KPG1 100751Z 05004KT 16/03 A2987 RMK A01 T01640034  RH  042%=      5-min Rain = 0
KPG1 100752Z 04004KT 16/04 A2987 RMK A01 T01610036  RH  043%=      5-min Rain = 0
KPG1 100753Z 06004KT 16/04 A2987 RMK A01 T01610035  RH  043%=      5-min Rain = 0
KPG1 100754Z 08004KT 16/03 A2987 RMK A01 T01590032  RH  043%=      5-min Rain = 0
KPG1 100755Z 08003KT 16/03 A2987 RMK A01 T01580033  RH  043%=      5-min Rain = 0
KPG1 100756Z 06002KT 16/04 A2987 RMK A01 T01610037  RH  043%=      5-min Rain = 0
KPG1 100757Z 08001KT 16/04 A2987 RMK A01 T01630036  RH  043%=      5-min Rain = 0
KPG1 100758Z 13001KT 16/04 A2988 RMK A01 T01640038  RH  043%=      5-min Rain = 0
KPG1 100759Z 14001KT 17/04 A2988 RMK A01 T01650037  RH  042%=      5-min Rain = 0
KPG1 100800Z 14001KT 17/04 A2988 RMK A01 T01660038  RH  042%=      5-min Rain = 0
KPG1 100801Z 14001KT 17/04 A2988 RMK A01 T01670037  RH  042%=      5-min Rain = 0
KPG1 100802Z 11001KT 17/04 A2988 RMK A01 T01670036  RH  042%=      5-min Rain = 0
KPG1 100803Z 09001KT 17/04 A2988 RMK A01 T01660035  RH  041%=      5-min Rain = 0
KPG1 100804Z 05001KT 16/04 A2988 RMK A01 T01640035  RH  042%=      5-min Rain = 0
KPG1 100805Z 07001KT 16/04 A2988 RMK A01 T01640035  RH  042%=      5-min Rain = 0
KPG1 100806Z 04001KT 16/04 A2988 RMK A01 T01640038  RH  043%=      5-min Rain = 0
KPG1 100807Z 05000KT 17/04 A2988 RMK A01 T01650040  RH  043%=      5-min Rain = 0
KPG1 100808Z 09002KT 17/04 A2988 RMK A01 T01650040  RH  043%=      5-min Rain = 0
KPG1 100809Z 10001KT 17/03 A2987 RMK A01 T01660034  RH  041%=      5-min Rain = 0
KPG1 100810Z 09001KT 17/03 A2987 RMK A01 T01670027  RH  039%=      5-min Rain = 0
KPG1 100811Z 10001KT 17/03 A2987 RMK A01 T01680030  RH  040%=      5-min Rain = 0
KPG1 100812Z 06001KT 17/03 A2987 RMK A01 T01690032  RH  040%=      5-min Rain = 0
KPG1 100813Z 07001KT 17/04 A2987 RMK A01 T01680037  RH  042%=      5-min Rain = 0
KPG1 100814Z 05001KT 17/04 A2987 RMK A01 T01660037  RH  042%=      5-min Rain = 0
KPG1 100815Z 06001KT 16/04 A2987 RMK A01 T01640038  RH  043%=      5-min Rain = 0
KPG1 100816Z 06001KT 16/04 A2987 RMK A01 T01630038  RH  043%=      5-min Rain = 0
KPG1 100817Z 06001KT 16/04 A2987 RMK A01 T01630038  RH  043%=      5-min Rain = 0
KPG1 100818Z 05001KT 16/04 A2987 RMK A01 T01630038  RH  043%=      5-min Rain = 0
KPG1 100819Z 06001KT 16/03 A2987 RMK A01 T01600032  RH  042%=      5-min Rain = 0
KPG1 100820Z 06002KT 15/03 A2987 RMK A01 T01540030  RH  043%=      5-min Rain = 0
KPG1 100821Z 07002KT 15/03 A2987 RMK A01 T01510031  RH  045%=      5-min Rain = 0
KPG1 100822Z 05001KT 15/03 A2987 RMK A01 T01490032  RH  045%=      5-min Rain = 0
KPG1 100823Z 06001KT 15/03 A2987 RMK A01 T01480034  RH  046%=      5-min Rain = 0
KPG1 100824Z 00000KT 15/04 A2987 RMK A01 T01480035  RH  047%=      5-min Rain = 0
KPG1 100825Z 00000KT 15/04 A2987 RMK A01 T01490035  RH  046%=      5-min Rain = 0
KPG1 100826Z 22000KT 15/03 A2987 RMK A01 T01500034  RH  046%=      5-min Rain = 0
KPG1 100827Z 25001KT 15/03 A2987 RMK A01 T01510026  RH  043%=      5-min Rain = 0
KPG1 100828Z 22002KT 15/02 A2987 RMK A01 T01510020  RH  041%=      5-min Rain = 0
KPG1 100829Z 21003KT 15/03 A2987 RMK A01 T01470026  RH  044%=      5-min Rain = 0
KPG1 100830Z 20003KT 14/02 A2987 RMK A01 T01440015  RH  042%=      5-min Rain = 0
KPG1 100831Z 21003KT 14/M00 A2987 RMK A01 T01401001  RH  038%=      5-min Rain = 0
KPG1 100832Z 21003KT 14/M02 A2987 RMK A01 T01371015  RH  035%=      5-min Rain = 0
KPG1 100833Z 21003KT 14/M02 A2987 RMK A01 T01361019  RH  034%=      5-min Rain = 0
KPG1 100834Z 21003KT 14/M02 A2987 RMK A01 T01361022  RH  033%=      5-min Rain = 0
KPG1 100835Z 21003KT 14/M02 A2987 RMK A01 T01361024  RH  033%=      5-min Rain = 0
KPG1 100836Z 22002KT 14/M03 A2987 RMK A01 T01381025  RH  032%=      5-min Rain = 0
KPG1 100837Z 24003KT 14/M03 A2987 RMK A01 T01391025  RH  032%=      5-min Rain = 0
KPG1 100838Z 25003KT 14/M02 A2987 RMK A01 T01391021  RH  033%=      5-min Rain = 0
KPG1 100839Z 21002KT 14/M02 A2987 RMK A01 T01371022  RH  033%=      5-min Rain = 0
KPG1 100840Z 21002KT 14/M03 A2987 RMK A01 T01371031  RH  031%=      5-min Rain = 0
KPG1 100841Z 19002KT 14/M04 A2987 RMK A01 T01371041  RH  029%=      5-min Rain = 0
KPG1 100842Z 17001KT 14/M04 A2987 RMK A01 T01371044  RH  028%=      5-min Rain = 0
KPG1 100843Z 17002KT 14/M04 A2987 RMK A01 T01371044  RH  028%=      5-min Rain = 0
KPG1 100844Z 19002KT 14/M05 A2987 RMK A01 T01371047  RH  028%=      5-min Rain = 0
KPG1 100845Z 20002KT 14/M05 A2987 RMK A01 T01361049  RH  027%=      5-min Rain = 0
KPG1 100846Z 21002KT 14/M05 A2987 RMK A01 T01361053  RH  027%=      5-min Rain = 0
KPG1 100847Z 19002KT 14/M05 A2987 RMK A01 T01361054  RH  026%=      5-min Rain = 0
KPG1 100848Z 18003KT 14/M05 A2987 RMK A01 T01351054  RH  026%=      5-min Rain = 0
KPG1 100849Z 18003KT 13/M06 A2987 RMK A01 T01331056  RH  026%=      5-min Rain = 0
KPG1 100850Z 19002KT 13/M06 A2987 RMK A01 T01321059  RH  026%=      5-min Rain = 0
KPG1 100851Z 18002KT 13/M06 A2987 RMK A01 T01311060  RH  026%=      5-min Rain = 0
KPG1 100852Z 19002KT 13/M06 A2987 RMK A01 T01301056  RH  027%=      5-min Rain = 0
KPG1 100853Z 18001KT 13/M06 A2987 RMK A01 T01281059  RH  027%=      5-min Rain = 0
KPG1 100854Z 18001KT 13/M06 A2987 RMK A01 T01281062  RH  026%=      5-min Rain = 0
KPG1 100855Z 18001KT 13/M06 A2987 RMK A01 T01281063  RH  026%=      5-min Rain = 0
KPG1 100856Z 18001KT 13/M06 A2987 RMK A01 T01281060  RH  026%=      5-min Rain = 0
KPG1 100857Z 19002KT 13/M06 A2987 RMK A01 T01271060  RH  027%=      5-min Rain = 0
KPG1 100858Z 18002KT 13/M06 A2987 RMK A01 T01271064  RH  026%=      5-min Rain = 0
KPG1 100859Z 20001KT 13/M07 A2987 RMK A01 T01271068  RH  025%=      5-min Rain = 0
KPG1 100900Z 21001KT 13/M07 A2987 RMK A01 T01281073  RH  024%=      5-min Rain = 0
KPG1 100901Z 00000KT 13/M08 A2987 RMK A01 T01281076  RH  023%=      5-min Rain = 0
KPG1 100902Z 00000KT 13/M07 A2987 RMK A01 T01301073  RH  024%=      5-min Rain = 0
KPG1 100903Z 23000KT 13/M07 A2987 RMK A01 T01311072  RH  024%=      5-min Rain = 0
KPG1 100904Z 21001KT 13/M07 A2987 RMK A01 T01331074  RH  023%=      5-min Rain = 0
KPG1 100905Z 19001KT 14/M08 A2987 RMK A01 T01351075  RH  023%=      5-min Rain = 0
KPG1 100906Z 21001KT 14/M08 A2987 RMK A01 T01361076  RH  022%=      5-min Rain = 0
KPG1 100907Z 22001KT 14/M08 A2987 RMK A01 T01381076  RH  022%=      5-min Rain = 0
KPG1 100908Z 18001KT 14/M08 A2987 RMK A01 T01401077  RH  022%=      5-min Rain = 0
KPG1 100909Z 17001KT 14/M08 A2987 RMK A01 T01401077  RH  021%=      5-min Rain = 0
KPG1 100910Z 17002KT 14/M08 A2987 RMK A01 T01401077  RH  021%=      5-min Rain = 0
KPG1 100911Z 18002KT 14/M08 A2987 RMK A01 T01411076  RH  022%=      5-min Rain = 0
KPG1 100912Z 18002KT 14/M08 A2987 RMK A01 T01401078  RH  021%=      5-min Rain = 0
KPG1 100913Z 16002KT 14/M08 A2987 RMK A01 T01401079  RH  021%=      5-min Rain = 0
KPG1 100914Z 16002KT 14/M08 A2987 RMK A01 T01401080  RH  021%=      5-min Rain = 0
KPG1 100915Z 16003KT 14/M08 A2987 RMK A01 T01401080  RH  021%=      5-min Rain = 0
KPG1 100916Z 16003KT 14/M08 A2987 RMK A01 T01401080  RH  021%=      5-min Rain = 0
KPG1 100917Z 16003KT 14/M08 A2987 RMK A01 T01401082  RH  021%=      5-min Rain = 0
KPG1 100918Z 16003KT 14/M08 A2987 RMK A01 T01401083  RH  021%=      5-min Rain = 0
KPG1 100919Z 16004KT 14/M09 A2987 RMK A01 T01401085  RH  020%=      5-min Rain = 0
KPG1 100920Z 17004KT 14/M09 A2987 RMK A01 T01411086  RH  020%=      5-min Rain = 0
KPG1 100921Z 17004KT 14/M09 A2987 RMK A01 T01421085  RH  020%=      5-min Rain = 0
KPG1 100922Z 17004KT 14/M09 A2987 RMK A01 T01421085  RH  020%=      5-min Rain = 0
KPG1 100923Z 17003KT 14/M08 A2987 RMK A01 T01411084  RH  020%=      5-min Rain = 0
KPG1 100924Z 16004KT 14/M08 A2987 RMK A01 T01401083  RH  020%=      5-min Rain = 0
KPG1 100925Z 14005KT 14/M08 A2987 RMK A01 T01391083  RH  021%=      5-min Rain = 0
KPG1 100926Z 14005KT 14/M08 A2987 RMK A01 T01391082  RH  021%=      5-min Rain = 0
KPG1 100927Z 14005KT 14/M08 A2987 RMK A01 T01381079  RH  021%=      5-min Rain = 0
KPG1 100928Z 15004KT 14/M08 A2987 RMK A01 T01371078  RH  022%=      5-min Rain = 0
KPG1 100929Z 16003KT 14/M08 A2987 RMK A01 T01361077  RH  022%=      5-min Rain = 0
KPG1 100930Z 16003KT 14/M08 A2987 RMK A01 T01351078  RH  022%=      5-min Rain = 0
KPG1 100931Z 18003KT 14/M08 A2987 RMK A01 T01351078  RH  022%=      5-min Rain = 0
KPG1 100932Z 19003KT 14/M08 A2987 RMK A01 T01351079  RH  022%=      5-min Rain = 0
KPG1 100933Z 20003KT 14/M08 A2987 RMK A01 T01361081  RH  021%=      5-min Rain = 0
KPG1 100934Z 20002KT 14/M08 A2987 RMK A01 T01361081  RH  021%=      5-min Rain = 0
KPG1 100935Z 23002KT 14/M08 A2987 RMK A01 T01361081  RH  021%=      5-min Rain = 0
KPG1 100936Z 24002KT 13/M08 A2987 RMK A01 T01341081  RH  022%=      5-min Rain = 0
KPG1 100937Z 24003KT 13/M08 A2987 RMK A01 T01331081  RH  022%=      5-min Rain = 0
KPG1 100938Z 24002KT 13/M08 A2987 RMK A01 T01341082  RH  022%=      5-min Rain = 0
KPG1 100939Z 24001KT 14/M08 A2987 RMK A01 T01361081  RH  021%=      5-min Rain = 0
KPG1 100940Z 23001KT 14/M08 A2986 RMK A01 T01371080  RH  021%=      5-min Rain = 0
KPG1 100941Z 25002KT 14/M08 A2986 RMK A01 T01381081  RH  021%=      5-min Rain = 0
KPG1 100942Z 25002KT 14/M08 A2986 RMK A01 T01391081  RH  021%=      5-min Rain = 0
KPG1 100943Z 22002KT 14/M08 A2986 RMK A01 T01401082  RH  021%=      5-min Rain = 0
KPG1 100944Z 22002KT 14/M08 A2986 RMK A01 T01411082  RH  021%=      5-min Rain = 0
KPG1 100945Z 20001KT 14/M08 A2986 RMK A01 T01421084  RH  020%=      5-min Rain = 0
KPG1 100946Z 21002KT 14/M08 A2986 RMK A01 T01431084  RH  020%=      5-min Rain = 0
KPG1 100947Z 24001KT 14/M08 A2986 RMK A01 T01441084  RH  020%=      5-min Rain = 0
KPG1 100948Z 23002KT 15/M08 A2986 RMK A01 T01451083  RH  020%=      5-min Rain = 0
KPG1 100949Z 25002KT 15/M08 A2986 RMK A01 T01471082  RH  020%=      5-min Rain = 0
KPG1 100950Z 23002KT 15/M08 A2986 RMK A01 T01471080  RH  020%=      5-min Rain = 0
KPG1 100951Z 23002KT 15/M08 A2986 RMK A01 T01471081  RH  020%=      5-min Rain = 0
KPG1 100952Z 24001KT 15/M08 A2986 RMK A01 T01491080  RH  020%=      5-min Rain = 0
KPG1 100953Z 28001KT 15/M08 A2986 RMK A01 T01491079  RH  020%=      5-min Rain = 0
KPG1 100954Z 25001KT 15/M08 A2986 RMK A01 T01491079  RH  020%=      5-min Rain = 0
KPG1 100955Z 22002KT 15/M08 A2986 RMK A01 T01491079  RH  020%=      5-min Rain = 0
KPG1 100956Z 21003KT 15/M08 A2986 RMK A01 T01491080  RH  020%=      5-min Rain = 0
KPG1 100957Z 21002KT 15/M08 A2986 RMK A01 T01501079  RH  020%=      5-min Rain = 0
KPG1 100958Z 25001KT 15/M08 A2986 RMK A01 T01491081  RH  020%=      5-min Rain = 0
KPG1 100959Z 29000KT 15/M08 A2986 RMK A01 T01491080  RH  020%=      5-min Rain = 0
KPG1 101000Z 32001KT 15/M08 A2986 RMK A01 T01491081  RH  020%=      5-min Rain = 0
KPG1 101001Z 31000KT 15/M08 A2986 RMK A01 T01491081  RH  020%=      5-min Rain = 0
KPG1 101002Z 20000KT 15/M08 A2986 RMK A01 T01491082  RH  019%=      5-min Rain = 0
KPG1 101003Z 22000KT 15/M08 A2986 RMK A01 T01491083  RH  019%=      5-min Rain = 0
KPG1 101004Z 24001KT 15/M08 A2986 RMK A01 T01501083  RH  019%=      5-min Rain = 0
KPG1 101005Z 28000KT 15/M08 A2986 RMK A01 T01491083  RH  019%=      5-min Rain = 0
KPG1 101006Z 31001KT 15/M08 A2986 RMK A01 T01491083  RH  019%=      5-min Rain = 0
KPG1 101007Z 32001KT 15/M09 A2986 RMK A01 T01491085  RH  019%=      5-min Rain = 0
KPG1 101008Z 00000KT 15/M09 A2986 RMK A01 T01501086  RH  019%=      5-min Rain = 0
KPG1 101009Z 00000KT 15/M09 A2986 RMK A01 T01511086  RH  019%=      5-min Rain = 0
KPG1 101010Z 00000KT 15/M09 A2986 RMK A01 T01521086  RH  019%=      5-min Rain = 0
KPG1 101011Z 00000KT 15/M09 A2986 RMK A01 T01521085  RH  019%=      5-min Rain = 0
KPG1 101012Z 00000KT 15/M09 A2986 RMK A01 T01521085  RH  019%=      5-min Rain = 0
KPG1 101013Z 24000KT 15/M09 A2986 RMK A01 T01511086  RH  019%=      5-min Rain = 0
KPG1 101014Z 22002KT 15/M09 A2986 RMK A01 T01511086  RH  019%=      5-min Rain = 0
KPG1 101015Z 22003KT 15/M09 A2987 RMK A01 T01511086  RH  019%=      5-min Rain = 0
KPG1 101016Z 22003KT 15/M09 A2987 RMK A01 T01511087  RH  019%=      5-min Rain = 0
KPG1 101017Z 21003KT 15/M09 A2987 RMK A01 T01511087  RH  019%=      5-min Rain = 0
KPG1 101018Z 22003KT 15/M09 A2987 RMK A01 T01511085  RH  019%=      5-min Rain = 0
KPG1 101019Z 23002KT 15/M08 A2987 RMK A01 T01481082  RH  020%=      5-min Rain = 0
KPG1 101020Z 21002KT 14/M08 A2987 RMK A01 T01441083  RH  020%=      5-min Rain = 0
KPG1 101021Z 20003KT 14/M08 A2987 RMK A01 T01411083  RH  020%=      5-min Rain = 0
KPG1 101022Z 20003KT 14/M08 A2987 RMK A01 T01381083  RH  021%=      5-min Rain = 0
KPG1 101023Z 20003KT 14/M09 A2987 RMK A01 T01361085  RH  021%=      5-min Rain = 0
KPG1 101024Z 19002KT 13/M09 A2987 RMK A01 T01341086  RH  021%=      5-min Rain = 0
KPG1 101025Z 18002KT 13/M09 A2987 RMK A01 T01341087  RH  021%=      5-min Rain = 0
KPG1 101026Z 18001KT 13/M09 A2987 RMK A01 T01331088  RH  021%=      5-min Rain = 0
KPG1 101027Z 18001KT 13/M09 A2987 RMK A01 T01331087  RH  021%=      5-min Rain = 0
KPG1 101028Z 19001KT 13/M09 A2987 RMK A01 T01321085  RH  021%=      5-min Rain = 0
KPG1 101029Z 20002KT 13/M09 A2987 RMK A01 T01321086  RH  021%=      5-min Rain = 0
KPG1 101030Z 21002KT 13/M09 A2987 RMK A01 T01311087  RH  021%=      5-min Rain = 0
KPG1 101031Z 22002KT 13/M09 A2987 RMK A01 T01311089  RH  021%=      5-min Rain = 0
KPG1 101032Z 24002KT 13/M09 A2987 RMK A01 T01331090  RH  020%=      5-min Rain = 0
KPG1 101033Z 24002KT 13/M09 A2987 RMK A01 T01331090  RH  020%=      5-min Rain = 0
KPG1 101034Z 23002KT 13/M09 A2987 RMK A01 T01331090  RH  020%=      5-min Rain = 0
KPG1 101035Z 22002KT 13/M09 A2987 RMK A01 T01331087  RH  021%=      5-min Rain = 0
KPG1 101036Z 20002KT 13/M09 A2987 RMK A01 T01331088  RH  021%=      5-min Rain = 0
KPG1 101037Z 20002KT 13/M09 A2987 RMK A01 T01341089  RH  020%=      5-min Rain = 0
KPG1 101038Z 19002KT 13/M09 A2987 RMK A01 T01331089  RH  020%=      5-min Rain = 0
KPG1 101039Z 19002KT 13/M09 A2987 RMK A01 T01331089  RH  020%=      5-min Rain = 0
KPG1 101040Z 18003KT 13/M09 A2987 RMK A01 T01321089  RH  021%=      5-min Rain = 0
KPG1 101041Z 19003KT 13/M09 A2987 RMK A01 T01321089  RH  021%=      5-min Rain = 0
KPG1 101042Z 18003KT 13/M09 A2987 RMK A01 T01321089  RH  021%=      5-min Rain = 0
KPG1 101043Z 17004KT 13/M09 A2988 RMK A01 T01311088  RH  021%=      5-min Rain = 0
KPG1 101044Z 18003KT 13/M09 A2988 RMK A01 T01291087  RH  021%=      5-min Rain = 0
KPG1 101045Z 17003KT 13/M09 A2988 RMK A01 T01251085  RH  022%=      5-min Rain = 0
KPG1 101046Z 18003KT 12/M08 A2988 RMK A01 T01221084  RH  023%=      5-min Rain = 0
KPG1 101047Z 18003KT 12/M08 A2988 RMK A01 T01191083  RH  023%=      5-min Rain = 0
KPG1 101048Z 19002KT 12/M08 A2988 RMK A01 T01181083  RH  024%=      5-min Rain = 0
KPG1 101049Z 18002KT 12/M08 A2988 RMK A01 T01161082  RH  024%=      5-min Rain = 0
KPG1 101050Z 19002KT 12/M08 A2988 RMK A01 T01151081  RH  024%=      5-min Rain = 0
KPG1 101051Z 19002KT 11/M08 A2988 RMK A01 T01141082  RH  025%=      5-min Rain = 0
KPG1 101052Z 19002KT 11/M08 A2988 RMK A01 T01131082  RH  025%=      5-min Rain = 0
KPG1 101053Z 19002KT 11/M08 A2988 RMK A01 T01131081  RH  025%=      5-min Rain = 0
KPG1 101054Z 19002KT 11/M08 A2988 RMK A01 T01141080  RH  025%=      5-min Rain = 0
KPG1 101055Z 18002KT 12/M08 A2988 RMK A01 T01151080  RH  025%=      5-min Rain = 0
KPG1 101056Z 18002KT 12/M08 A2988 RMK A01 T01161080  RH  024%=      5-min Rain = 0
KPG1 101057Z 19002KT 12/M08 A2988 RMK A01 T01171081  RH  024%=      5-min Rain = 0
KPG1 101058Z 21002KT 12/M08 A2988 RMK A01 T01171082  RH  024%=      5-min Rain = 0
KPG1 101059Z 21002KT 12/M08 A2989 RMK A01 T01181081  RH  024%=      5-min Rain = 0
KPG1 101100Z 23002KT 12/M08 A2989 RMK A01 T01181081  RH  024%=      5-min Rain = 0
KPG1 101101Z 22002KT 12/M08 A2989 RMK A01 T01181080  RH  024%=      5-min Rain = 0
KPG1 101102Z 23002KT 12/M08 A2989 RMK A01 T01171078  RH  025%=      5-min Rain = 0
KPG1 101103Z 25002KT 12/M08 A2989 RMK A01 T01171079  RH  025%=      5-min Rain = 0
KPG1 101104Z 25003KT 12/M08 A2989 RMK A01 T01171078  RH  025%=      5-min Rain = 0
KPG1 101105Z 26003KT 12/M08 A2989 RMK A01 T01171077  RH  025%=      5-min Rain = 0
KPG1 101106Z 26002KT 12/M08 A2989 RMK A01 T01171077  RH  025%=      5-min Rain = 0
KPG1 101107Z 26002KT 12/M07 A2989 RMK A01 T01191074  RH  025%=      5-min Rain = 0
KPG1 101108Z 27003KT 12/M07 A2989 RMK A01 T01201072  RH  025%=      5-min Rain = 0
KPG1 101109Z 22001KT 12/M07 A2989 RMK A01 T01211071  RH  025%=      5-min Rain = 0
KPG1 101110Z 31001KT 12/M07 A2989 RMK A01 T01231071  RH  025%=      5-min Rain = 0
KPG1 101111Z 31000KT 12/M08 A2989 RMK A01 T01201075  RH  025%=      5-min Rain = 0
KPG1 101112Z 31001KT 12/M08 A2989 RMK A01 T01161076  RH  025%=      5-min Rain = 0
KPG1 101113Z 26000KT 11/M08 A2989 RMK A01 T01141076  RH  026%=      5-min Rain = 0
KPG1 101114Z 26001KT 11/M08 A2989 RMK A01 T01131075  RH  026%=      5-min Rain = 0
KPG1 101115Z 28000KT 11/M08 A2989 RMK A01 T01111075  RH  026%=      5-min Rain = 0
KPG1 101116Z 00000KT 11/M08 A2989 RMK A01 T01091076  RH  027%=      5-min Rain = 0
KPG1 101117Z 27001KT 11/M08 A2989 RMK A01 T01081075  RH  027%=      5-min Rain = 0
KPG1 101118Z 29001KT 11/M07 A2989 RMK A01 T01081074  RH  027%=      5-min Rain = 0
KPG1 101119Z 19000KT 11/M08 A2989 RMK A01 T01061075  RH  027%=      5-min Rain = 0
KPG1 101120Z 30001KT 11/M07 A2989 RMK A01 T01061074  RH  027%=      5-min Rain = 0
KPG1 101121Z 29002KT 11/M07 A2989 RMK A01 T01061074  RH  028%=      5-min Rain = 0
KPG1 101122Z 22002KT 11/M07 A2989 RMK A01 T01061073  RH  028%=      5-min Rain = 0
KPG1 101123Z 26002KT 11/M07 A2989 RMK A01 T01081072  RH  028%=      5-min Rain = 0
KPG1 101124Z 24002KT 11/M07 A299 RMK A01 T01081073  RH  027%=      5-min Rain = 0
KPG1 101125Z 23002KT 11/M07 A299 RMK A01 T01091072  RH  028%=      5-min Rain = 0
KPG1 101126Z 24002KT 11/M07 A299 RMK A01 T01111070  RH  027%=      5-min Rain = 0
KPG1 101127Z 25002KT 11/M07 A299 RMK A01 T01131070  RH  027%=      5-min Rain = 0
KPG1 101128Z 24002KT 11/M07 A299 RMK A01 T01141070  RH  027%=      5-min Rain = 0
KPG1 101129Z 22002KT 12/M07 A299 RMK A01 T01151070  RH  027%=      5-min Rain = 0
KPG1 101130Z 22003KT 12/M07 A299 RMK A01 T01161070  RH  026%=      5-min Rain = 0
KPG1 101131Z 23003KT 12/M07 A299 RMK A01 T01171071  RH  026%=      5-min Rain = 0
KPG1 101132Z 22003KT 12/M07 A299 RMK A01 T01181071  RH  026%=      5-min Rain = 0
KPG1 101133Z 23003KT 12/M07 A299 RMK A01 T01181071  RH  026%=      5-min Rain = 0
KPG1 101134Z 23003KT 12/M07 A2991 RMK A01 T01181071  RH  026%=      5-min Rain = 0
KPG1 101135Z 22002KT 12/M07 A2991 RMK A01 T01171072  RH  026%=      5-min Rain = 0
KPG1 101136Z 23002KT 12/M07 A2991 RMK A01 T01171072  RH  026%=      5-min Rain = 0
KPG1 101137Z 24002KT 12/M07 A2991 RMK A01 T01171073  RH  026%=      5-min Rain = 0
KPG1 101138Z 24003KT 12/M07 A2991 RMK A01 T01171072  RH  026%=      5-min Rain = 0
KPG1 101139Z 23002KT 12/M07 A2991 RMK A01 T01171072  RH  026%=      5-min Rain = 0
KPG1 101140Z 25001KT 12/M07 A2991 RMK A01 T01161071  RH  026%=      5-min Rain = 0
KPG1 101141Z 28001KT 12/M07 A2991 RMK A01 T01161071  RH  026%=      5-min Rain = 0
KPG1 101142Z 27002KT 12/M07 A2991 RMK A01 T01161071  RH  026%=      5-min Rain = 0
KPG1 101143Z 27001KT 12/M07 A2991 RMK A01 T01171069  RH  027%=      5-min Rain = 0
KPG1 101144Z 27001KT 12/M07 A2991 RMK A01 T01171068  RH  027%=      5-min Rain = 0
KPG1 101145Z 28001KT 12/M07 A2991 RMK A01 T01161070  RH  026%=      5-min Rain = 0
KPG1 101146Z 28001KT 12/M07 A2991 RMK A01 T01151071  RH  026%=      5-min Rain = 0
KPG1 101147Z 28001KT 11/M07 A2991 RMK A01 T01141071  RH  027%=      5-min Rain = 0
KPG1 101148Z 00000KT 11/M07 A2991 RMK A01 T01121071  RH  027%=      5-min Rain = 0
KPG1 101149Z 05000KT 11/M07 A2991 RMK A01 T01091071  RH  028%=      5-min Rain = 0
KPG1 101150Z 03001KT 11/M07 A2991 RMK A01 T01061070  RH  028%=      5-min Rain = 0
KPG1 101151Z 03001KT 10/M07 A2991 RMK A01 T01031070  RH  029%=      5-min Rain = 0
KPG1 101152Z 34000KT 10/M07 A2991 RMK A01 T01021069  RH  029%=      5-min Rain = 0
KPG1 101153Z 00000KT 10/M07 A2991 RMK A01 T01011069  RH  029%=      5-min Rain = 0
KPG1 101154Z 22000KT 10/M07 A2991 RMK A01 T01021069  RH  029%=      5-min Rain = 0
KPG1 101155Z 23001KT 10/M07 A2991 RMK A01 T01031069  RH  029%=      5-min Rain = 0
KPG1 101156Z 23002KT 10/M07 A2991 RMK A01 T01031069  RH  029%=      5-min Rain = 0
KPG1 101157Z 23002KT 10/M07 A2991 RMK A01 T01041068  RH  029%=      5-min Rain = 0
KPG1 101158Z 23002KT 11/M07 A2991 RMK A01 T01051068  RH  029%=      5-min Rain = 0
KPG1 101159Z 24002KT 11/M07 A2992 RMK A01 T01081067  RH  029%=      5-min Rain = 0
KPG1 101200Z 23002KT 11/M06 A2992 RMK A01 T01121063  RH  029%=      5-min Rain = 0
KPG1 101201Z 23002KT 12/M06 A2992 RMK A01 T01151063  RH  028%=      5-min Rain = 0
KPG1 101202Z 25003KT 12/M06 A2992 RMK A01 T01181063  RH  028%=      5-min Rain = 0
KPG1 101203Z 23003KT 12/M06 A2992 RMK A01 T01191064  RH  027%=      5-min Rain = 0
KPG1 101204Z 24003KT 12/M07 A2992 RMK A01 T01201066  RH  027%=      5-min Rain = 0
KPG1 101205Z 25002KT 12/M07 A2992 RMK A01 T01221066  RH  026%=      5-min Rain = 0
KPG1 101206Z 24002KT 12/M07 A2992 RMK A01 T01221066  RH  026%=      5-min Rain = 0
KPG1 101207Z 23002KT 12/M07 A2992 RMK A01 T01231067  RH  026%=      5-min Rain = 0
KPG1 101208Z 20001KT 12/M07 A2992 RMK A01 T01221067  RH  026%=      5-min Rain = 0
KPG1 101209Z 23002KT 12/M07 A2992 RMK A01 T01221068  RH  026%=      5-min Rain = 0
KPG1 101210Z 22002KT 12/M07 A2992 RMK A01 T01221068  RH  026%=      5-min Rain = 0
KPG1 101211Z 22002KT 12/M07 A2992 RMK A01 T01211068  RH  026%=      5-min Rain = 0
KPG1 101212Z 22003KT 12/M07 A2992 RMK A01 T01201068  RH  026%=      5-min Rain = 0
KPG1 101213Z 24002KT 12/M07 A2992 RMK A01 T01201069  RH  026%=      5-min Rain = 0
KPG1 101214Z 22003KT 12/M07 A2992 RMK A01 T01191069  RH  026%=      5-min Rain = 0
KPG1 101215Z 22003KT 12/M07 A2992 RMK A01 T01181069  RH  026%=      5-min Rain = 0
KPG1 101216Z 22003KT 12/M07 A2992 RMK A01 T01161069  RH  027%=      5-min Rain = 0
KPG1 101217Z 23002KT 12/M07 A2992 RMK A01 T01151070  RH  027%=      5-min Rain = 0
KPG1 101218Z 22002KT 11/M07 A2992 RMK A01 T01141070  RH  027%=      5-min Rain = 0
KPG1 101219Z 23003KT 11/M07 A2992 RMK A01 T01141070  RH  027%=      5-min Rain = 0
KPG1 101220Z 25004KT 11/M07 A2992 RMK A01 T01131072  RH  027%=      5-min Rain = 0
KPG1 101221Z 25003KT 11/M07 A2992 RMK A01 T01141073  RH  026%=      5-min Rain = 0
KPG1 101222Z 25003KT 12/M07 A2992 RMK A01 T01151073  RH  026%=      5-min Rain = 0
KPG1 101223Z 24003KT 12/M07 A2992 RMK A01 T01161074  RH  026%=      5-min Rain = 0
KPG1 101224Z 25002KT 12/M07 A2992 RMK A01 T01161074  RH  026%=      5-min Rain = 0
KPG1 101225Z 24003KT 12/M08 A2992 RMK A01 T01171075  RH  025%=      5-min Rain = 0
KPG1 101226Z 23002KT 12/M08 A2992 RMK A01 T01181075  RH  025%=      5-min Rain = 0
KPG1 101227Z 25003KT 12/M08 A2992 RMK A01 T01191076  RH  025%=      5-min Rain = 0
KPG1 101228Z 24002KT 12/M08 A2992 RMK A01 T01191076  RH  025%=      5-min Rain = 0
KPG1 101229Z 25002KT 12/M08 A2992 RMK A01 T01201077  RH  024%=      5-min Rain = 0
KPG1 101230Z 25002KT 12/M08 A2992 RMK A01 T01211078  RH  024%=      5-min Rain = 0
KPG1 101231Z 25002KT 12/M08 A2992 RMK A01 T01221079  RH  024%=      5-min Rain = 0
KPG1 101232Z 23003KT 12/M08 A2992 RMK A01 T01221078  RH  024%=      5-min Rain = 0
KPG1 101233Z 23002KT 12/M08 A2992 RMK A01 T01221079  RH  024%=      5-min Rain = 0
KPG1 101234Z 23002KT 12/M08 A2992 RMK A01 T01221079  RH  024%=      5-min Rain = 0
KPG1 101235Z 24002KT 12/M08 A2992 RMK A01 T01221079  RH  024%=      5-min Rain = 0
KPG1 101236Z 22003KT 12/M08 A2992 RMK A01 T01221080  RH  024%=      5-min Rain = 0
KPG1 101237Z 22003KT 12/M08 A2992 RMK A01 T01231080  RH  023%=      5-min Rain = 0
KPG1 101238Z 23003KT 12/M08 A2992 RMK A01 T01231079  RH  024%=      5-min Rain = 0
KPG1 101239Z 22003KT 12/M08 A2992 RMK A01 T01231079  RH  024%=      5-min Rain = 0
KPG1 101240Z 24003KT 12/M08 A2992 RMK A01 T01231080  RH  023%=      5-min Rain = 0
KPG1 101241Z 23003KT 12/M08 A2992 RMK A01 T01241080  RH  023%=      5-min Rain = 0
KPG1 101242Z 22002KT 12/M08 A2992 RMK A01 T01241079  RH  023%=      5-min Rain = 0
KPG1 101243Z 24003KT 12/M08 A2992 RMK A01 T01241079  RH  023%=      5-min Rain = 0
KPG1 101244Z 24003KT 12/M08 A2992 RMK A01 T01241080  RH  023%=      5-min Rain = 0
KPG1 101245Z 25003KT 12/M08 A2992 RMK A01 T01231079  RH  024%=      5-min Rain = 0
KPG1 101246Z 25003KT 12/M08 A2992 RMK A01 T01231080  RH  023%=      5-min Rain = 0
KPG1 101247Z 25003KT 12/M08 A2992 RMK A01 T01231080  RH  023%=      5-min Rain = 0
KPG1 101248Z 23003KT 12/M08 A2992 RMK A01 T01241080  RH  023%=      5-min Rain = 0
KPG1 101249Z 25003KT 13/M08 A2992 RMK A01 T01251080  RH  023%=      5-min Rain = 0
KPG1 101250Z 23003KT 13/M08 A2992 RMK A01 T01251080  RH  023%=      5-min Rain = 0
KPG1 101251Z 24002KT 13/M08 A2992 RMK A01 T01261080  RH  023%=      5-min Rain = 0
KPG1 101252Z 24003KT 13/M08 A2993 RMK A01 T01261080  RH  023%=      5-min Rain = 0
KPG1 101253Z 23003KT 13/M08 A2993 RMK A01 T01261080  RH  023%=      5-min Rain = 0
KPG1 101254Z 24002KT 13/M08 A2993 RMK A01 T01261080  RH  023%=      5-min Rain = 0
KPG1 101255Z 22003KT 13/M08 A2993 RMK A01 T01271080  RH  023%=      5-min Rain = 0
KPG1 101256Z 21002KT 13/M08 A2993 RMK A01 T01271080  RH  023%=      5-min Rain = 0
KPG1 101257Z 22002KT 13/M08 A2993 RMK A01 T01271079  RH  023%=      5-min Rain = 0
KPG1 101258Z 21003KT 13/M08 A2993 RMK A01 T01261079  RH  023%=      5-min Rain = 0
KPG1 101259Z 18004KT 13/M08 A2993 RMK A01 T01251079  RH  023%=      5-min Rain = 0
KPG1 101300Z 21003KT 13/M08 A2993 RMK A01 T01251079  RH  023%=      5-min Rain = 0
KPG1 101301Z 21004KT 13/M08 A2993 RMK A01 T01261079  RH  023%=      5-min Rain = 0
KPG1 101302Z 21003KT 13/M08 A2993 RMK A01 T01261079  RH  023%=      5-min Rain = 0
KPG1 101303Z 21003KT 13/M08 A2993 RMK A01 T01261079  RH  023%=      5-min Rain = 0
KPG1 101304Z 20004KT 13/M08 A2993 RMK A01 T01261079  RH  023%=      5-min Rain = 0
KPG1 101305Z 22004KT 13/M08 A2993 RMK A01 T01261078  RH  023%=      5-min Rain = 0
KPG1 101306Z 23003KT 12/M08 A2993 RMK A01 T01241078  RH  024%=      5-min Rain = 0
KPG1 101307Z 24003KT 12/M08 A2993 RMK A01 T01231079  RH  024%=      5-min Rain = 0
KPG1 101308Z 23003KT 12/M08 A2993 RMK A01 T01221079  RH  024%=      5-min Rain = 0
KPG1 101309Z 23003KT 12/M08 A2993 RMK A01 T01221079  RH  024%=      5-min Rain = 0
KPG1 101310Z 22003KT 12/M08 A2993 RMK A01 T01221079  RH  024%=      5-min Rain = 0
KPG1 101311Z 22004KT 12/M08 A2993 RMK A01 T01221078  RH  024%=      5-min Rain = 0
KPG1 101312Z 22004KT 12/M08 A2993 RMK A01 T01211078  RH  024%=      5-min Rain = 0
KPG1 101313Z 22004KT 12/M08 A2993 RMK A01 T01211078  RH  024%=      5-min Rain = 0
KPG1 101314Z 22003KT 12/M08 A2993 RMK A01 T01201077  RH  024%=      5-min Rain = 0
KPG1 101315Z 22003KT 12/M08 A2993 RMK A01 T01191077  RH  025%=      5-min Rain = 0
KPG1 101316Z 23003KT 12/M08 A2993 RMK A01 T01181075  RH  025%=      5-min Rain = 0
KPG1 101317Z 23003KT 12/M07 A2993 RMK A01 T01181073  RH  026%=      5-min Rain = 0
KPG1 101318Z 23003KT 12/M07 A2993 RMK A01 T01181071  RH  026%=      5-min Rain = 0
KPG1 101319Z 22004KT 12/M07 A2993 RMK A01 T01181068  RH  027%=      5-min Rain = 0
KPG1 101320Z 21004KT 12/M07 A2993 RMK A01 T01171066  RH  027%=      5-min Rain = 0
KPG1 101321Z 21003KT 12/M06 A2993 RMK A01 T01171063  RH  028%=      5-min Rain = 0
KPG1 101322Z 22003KT 12/M06 A2993 RMK A01 T01171061  RH  028%=      5-min Rain = 0
KPG1 101323Z 22002KT 12/M06 A2993 RMK A01 T01161058  RH  029%=      5-min Rain = 0
KPG1 101324Z 23003KT 12/M06 A2993 RMK A01 T01161057  RH  029%=      5-min Rain = 0
KPG1 101325Z 22003KT 12/M06 A2993 RMK A01 T01161056  RH  030%=      5-min Rain = 0
KPG1 101326Z 23003KT 12/M06 A2993 RMK A01 T01161055  RH  030%=      5-min Rain = 0
KPG1 101327Z 23003KT 12/M06 A2993 RMK A01 T01161056  RH  030%=      5-min Rain = 0
KPG1 101328Z 21003KT 12/M06 A2993 RMK A01 T01161056  RH  030%=      5-min Rain = 0
KPG1 101329Z 23003KT 12/M06 A2993 RMK A01 T01151056  RH  030%=      5-min Rain = 0
KPG1 101330Z 22004KT 11/M06 A2993 RMK A01 T01141056  RH  030%=      5-min Rain = 0
KPG1 101331Z 22004KT 11/M05 A2993 RMK A01 T01141054  RH  030%=      5-min Rain = 0
KPG1 101332Z 21004KT 11/M05 A2993 RMK A01 T01141054  RH  030%=      5-min Rain = 0
KPG1 101333Z 21004KT 11/M06 A2993 RMK A01 T01141056  RH  030%=      5-min Rain = 0
KPG1 101334Z 19004KT 11/M06 A2993 RMK A01 T01141057  RH  030%=      5-min Rain = 0
KPG1 101335Z 19004KT 11/M06 A2993 RMK A01 T01141057  RH  030%=      5-min Rain = 0
KPG1 101336Z 21003KT 12/M06 A2993 RMK A01 T01151057  RH  030%=      5-min Rain = 0
KPG1 101337Z 21004KT 12/M06 A2993 RMK A01 T01151057  RH  030%=      5-min Rain = 0
KPG1 101338Z 20004KT 12/M06 A2993 RMK A01 T01151057  RH  030%=      5-min Rain = 0
KPG1 101339Z 20004KT 12/M06 A2993 RMK A01 T01161060  RH  029%=      5-min Rain = 0
KPG1 101340Z 22003KT 12/M06 A2993 RMK A01 T01181062  RH  028%=      5-min Rain = 0
KPG1 101341Z 21004KT 12/M06 A2993 RMK A01 T01191062  RH  028%=      5-min Rain = 0
KPG1 101342Z 21004KT 12/M06 A2993 RMK A01 T01201064  RH  027%=      5-min Rain = 0
KPG1 101343Z 22004KT 12/M06 A2993 RMK A01 T01211064  RH  027%=      5-min Rain = 0
KPG1 101344Z 21004KT 12/M06 A2993 RMK A01 T01221064  RH  027%=      5-min Rain = 0
KPG1 101345Z 22003KT 12/M06 A2993 RMK A01 T01221064  RH  027%=      5-min Rain = 0
KPG1 101346Z 23004KT 12/M07 A2994 RMK A01 T01231066  RH  026%=      5-min Rain = 0
KPG1 101347Z 21004KT 12/M07 A2994 RMK A01 T01241067  RH  026%=      5-min Rain = 0
KPG1 101348Z 22004KT 13/M07 A2994 RMK A01 T01251067  RH  026%=      5-min Rain = 0
KPG1 101349Z 23003KT 13/M07 A2994 RMK A01 T01251067  RH  026%=      5-min Rain = 0
KPG1 101350Z 23003KT 13/M07 A2994 RMK A01 T01251067  RH  026%=      5-min Rain = 0
KPG1 101351Z 24003KT 13/M07 A2994 RMK A01 T01251068  RH  025%=      5-min Rain = 0
KPG1 101352Z 24003KT 13/M07 A2994 RMK A01 T01261067  RH  025%=      5-min Rain = 0
KPG1 101353Z 22003KT 13/M07 A2994 RMK A01 T01261068  RH  025%=      5-min Rain = 0
KPG1 101354Z 24003KT 13/M07 A2994 RMK A01 T01261068  RH  025%=      5-min Rain = 0
KPG1 101355Z 23003KT 13/M07 A2994 RMK A01 T01261070  RH  025%=      5-min Rain = 0
KPG1 101356Z 24003KT 13/M07 A2994 RMK A01 T01261070  RH  025%=      5-min Rain = 0
KPG1 101357Z 23003KT 13/M07 A2994 RMK A01 T01271071  RH  025%=      5-min Rain = 0
KPG1 101358Z 23003KT 13/M07 A2994 RMK A01 T01281071  RH  024%=      5-min Rain = 0
KPG1 101359Z 24003KT 13/M07 A2995 RMK A01 T01281071  RH  024%=      5-min Rain = 0
KPG1 101400Z 24003KT 13/M07 A2995 RMK A01 T01281071  RH  024%=      5-min Rain = 0
KPG1 101401Z 24003KT 13/M07 A2995 RMK A01 T01281071  RH  024%=      5-min Rain = 0
KPG1 101402Z 24003KT 13/M07 A2995 RMK A01 T01291072  RH  024%=      5-min Rain = 0
KPG1 101403Z 25003KT 13/M07 A2995 RMK A01 T01291073  RH  024%=      5-min Rain = 0
KPG1 101404Z 23003KT 13/M07 A2995 RMK A01 T01301073  RH  024%=      5-min Rain = 0
KPG1 101405Z 23003KT 13/M07 A2995 RMK A01 T01311072  RH  024%=      5-min Rain = 0
KPG1 101406Z 23002KT 13/M07 A2995 RMK A01 T01311072  RH  024%=      5-min Rain = 0
KPG1 101407Z 23003KT 13/M07 A2995 RMK A01 T01311072  RH  024%=      5-min Rain = 0
KPG1 101408Z 23002KT 13/M07 A2995 RMK A01 T01311072  RH  024%=      5-min Rain = 0
KPG1 101409Z 23002KT 13/M07 A2995 RMK A01 T01331070  RH  024%=      5-min Rain = 0
KPG1 101410Z 23002KT 14/M07 A2995 RMK A01 T01351069  RH  024%=      5-min Rain = 0
KPG1 101411Z 22002KT 14/M07 A2995 RMK A01 T01371068  RH  023%=      5-min Rain = 0
KPG1 101412Z 22002KT 14/M07 A2995 RMK A01 T01401071  RH  023%=      5-min Rain = 0
KPG1 101413Z 21002KT 14/M07 A2995 RMK A01 T01421071  RH  022%=      5-min Rain = 0
KPG1 101414Z 21002KT 14/M07 A2995 RMK A01 T01441065  RH  023%=      5-min Rain = 0
KPG1 101415Z 20002KT 15/M06 A2995 RMK A01 T01461057  RH  024%=      5-min Rain = 0
KPG1 101416Z 20002KT 15/M06 A2995 RMK A01 T01471055  RH  024%=      5-min Rain = 0
KPG1 101417Z 20002KT 15/M06 A2995 RMK A01 T01481063  RH  023%=      5-min Rain = 0
KPG1 101418Z 21002KT 15/M07 A2995 RMK A01 T01491067  RH  022%=      5-min Rain = 0
KPG1 101419Z 21002KT 15/M07 A2995 RMK A01 T01491069  RH  022%=      5-min Rain = 0
KPG1 101420Z 21002KT 15/M07 A2995 RMK A01 T01501069  RH  021%=      5-min Rain = 0
KPG1 101421Z 19002KT 15/M07 A2995 RMK A01 T01511069  RH  021%=      5-min Rain = 0
KPG1 101422Z 20002KT 15/M07 A2995 RMK A01 T01521067  RH  021%=      5-min Rain = 0
KPG1 101423Z 20003KT 15/M07 A2995 RMK A01 T01531065  RH  022%=      5-min Rain = 0
KPG1 101424Z 20003KT 15/M07 A2995 RMK A01 T01541067  RH  021%=      5-min Rain = 0
KPG1 101425Z 21003KT 16/M07 A2995 RMK A01 T01551066  RH  021%=      5-min Rain = 0
KPG1 101426Z 20003KT 16/M07 A2995 RMK A01 T01561068  RH  021%=      5-min Rain = 0
KPG1 101427Z 20002KT 16/M07 A2995 RMK A01 T01561068  RH  021%=      5-min Rain = 0
KPG1 101428Z 21002KT 16/M07 A2995 RMK A01 T01571069  RH  020%=      5-min Rain = 0
KPG1 101429Z 20002KT 16/M07 A2995 RMK A01 T01581070  RH  020%=      5-min Rain = 0
KPG1 101430Z 21002KT 16/M07 A2995 RMK A01 T01591069  RH  020%=      5-min Rain = 0
KPG1 101431Z 20003KT 16/M07 A2995 RMK A01 T01601071  RH  020%=      5-min Rain = 0
KPG1 101432Z 20003KT 16/M07 A2995 RMK A01 T01611071  RH  020%=      5-min Rain = 0
KPG1 101433Z 20003KT 16/M07 A2995 RMK A01 T01621070  RH  020%=      5-min Rain = 0
KPG1 101434Z 20003KT 16/M07 A2995 RMK A01 T01631069  RH  020%=      5-min Rain = 0
KPG1 101435Z 21004KT 16/M07 A2995 RMK A01 T01641069  RH  020%=      5-min Rain = 0
KPG1 101436Z 20004KT 16/M07 A2995 RMK A01 T01641069  RH  020%=      5-min Rain = 0
KPG1 101437Z 21004KT 16/M07 A2995 RMK A01 T01641071  RH  019%=      5-min Rain = 0
KPG1 101438Z 21004KT 16/M07 A2995 RMK A01 T01641071  RH  019%=      5-min Rain = 0
KPG1 101439Z 22004KT 16/M07 A2995 RMK A01 T01641073  RH  019%=      5-min Rain = 0
KPG1 101440Z 21004KT 16/M08 A2995 RMK A01 T01641076  RH  019%=      5-min Rain = 0
KPG1 101441Z 19004KT 16/M08 A2995 RMK A01 T01641076  RH  019%=      5-min Rain = 0
KPG1 101442Z 19004KT 17/M07 A2995 RMK A01 T01651074  RH  019%=      5-min Rain = 0
KPG1 101443Z 21003KT 17/M07 A2995 RMK A01 T01671073  RH  019%=      5-min Rain = 0
KPG1 101444Z 21003KT 17/M07 A2995 RMK A01 T01691074  RH  018%=      5-min Rain = 0
KPG1 101445Z 20003KT 17/M08 A2995 RMK A01 T01691075  RH  018%=      5-min Rain = 0
KPG1 101446Z 19003KT 17/M07 A2995 RMK A01 T01691073  RH  018%=      5-min Rain = 0
KPG1 101447Z 20003KT 17/M07 A2995 RMK A01 T01701072  RH  018%=      5-min Rain = 0
KPG1 101448Z 19003KT 17/M07 A2995 RMK A01 T01711073  RH  018%=      5-min Rain = 0
KPG1 101449Z 20004KT 17/M07 A2995 RMK A01 T01721072  RH  018%=      5-min Rain = 0
KPG1 101450Z 22003KT 17/M07 A2995 RMK A01 T01741073  RH  018%=      5-min Rain = 0
KPG1 101451Z 22003KT 18/M07 A2995 RMK A01 T01751074  RH  018%=      5-min Rain = 0
KPG1 101452Z 23003KT 18/M07 A2995 RMK A01 T01751074  RH  018%=      5-min Rain = 0
KPG1 101453Z 22003KT 18/M07 A2995 RMK A01 T01761074  RH  018%=      5-min Rain = 0
KPG1 101454Z 22003KT 18/M08 A2995 RMK A01 T01761077  RH  017%=      5-min Rain = 0
KPG1 101455Z 23003KT 18/M08 A2995 RMK A01 T01761077  RH  017%=      5-min Rain = 0
KPG1 101456Z 24003KT 18/M08 A2995 RMK A01 T01771075  RH  017%=      5-min Rain = 0
KPG1 101457Z 21003KT 18/M08 A2995 RMK A01 T01771076  RH  017%=      5-min Rain = 0
KPG1 101458Z 22003KT 18/M08 A2995 RMK A01 T01781075  RH  017%=      5-min Rain = 0
KPG1 101459Z 21003KT 18/M08 A2995 RMK A01 T01791075  RH  017%=      5-min Rain = 0
KPG1 101500Z 20003KT 18/M08 A2996 RMK A01 T01801075  RH  017%=      5-min Rain = 0
KPG1 101501Z 22003KT 18/M08 A2996 RMK A01 T01801075  RH  017%=      5-min Rain = 0
KPG1 101502Z 22003KT 18/M08 A2996 RMK A01 T01811075  RH  017%=      5-min Rain = 0
KPG1 101503Z 23003KT 18/M07 A2996 RMK A01 T01821073  RH  017%=      5-min Rain = 0
KPG1 101504Z 21003KT 18/M07 A2996 RMK A01 T01831073  RH  017%=      5-min Rain = 0
KPG1 101505Z 21003KT 18/M07 A2996 RMK A01 T01831073  RH  017%=      5-min Rain = 0
KPG1 101506Z 21003KT 19/M07 A2996 RMK A01 T01851072  RH  017%=      5-min Rain = 0
KPG1 101507Z 22004KT 19/M07 A2996 RMK A01 T01861073  RH  017%=      5-min Rain = 0
KPG1 101508Z 22003KT 19/M07 A2996 RMK A01 T01851074  RH  017%=      5-min Rain = 0
KPG1 101509Z 19004KT 19/M07 A2996 RMK A01 T01861074  RH  016%=      5-min Rain = 0
KPG1 101510Z 19004KT 19/M08 A2996 RMK A01 T01871075  RH  016%=      5-min Rain = 0
KPG1 101511Z 18004KT 19/M08 A2996 RMK A01 T01881077  RH  016%=      5-min Rain = 0
KPG1 101512Z 19003KT 19/M07 A2995 RMK A01 T01891073  RH  016%=      5-min Rain = 0
KPG1 101513Z 19004KT 19/M07 A2995 RMK A01 T01901071  RH  016%=      5-min Rain = 0
KPG1 101514Z 20004KT 19/M07 A2995 RMK A01 T01911072  RH  016%=      5-min Rain = 0
KPG1 101515Z 21003KT 19/M07 A2995 RMK A01 T01921071  RH  016%=      5-min Rain = 0
KPG1 101516Z 20003KT 19/M07 A2996 RMK A01 T01931072  RH  016%=      5-min Rain = 0
KPG1 101517Z 19003KT 19/M07 A2996 RMK A01 T01931071  RH  016%=      5-min Rain = 0
KPG1 101518Z 23003KT 19/M07 A2996 RMK A01 T01931070  RH  016%=      5-min Rain = 0
KPG1 101519Z 20003KT 19/M07 A2996 RMK A01 T01941069  RH  016%=      5-min Rain = 0
KPG1 101520Z 21002KT 20/M07 A2996 RMK A01 T01951068  RH  016%=      5-min Rain = 0
KPG1 101521Z 20003KT 20/M07 A2996 RMK A01 T01971069  RH  016%=      5-min Rain = 0
KPG1 101522Z 22003KT 20/M07 A2996 RMK A01 T01981070  RH  016%=      5-min Rain = 0
KPG1 101523Z 22003KT 20/M07 A2996 RMK A01 T01981070  RH  016%=      5-min Rain = 0
KPG1 101524Z 23003KT 20/M07 A2996 RMK A01 T01971071  RH  016%=      5-min Rain = 0
KPG1 101525Z 22003KT 20/M07 A2996 RMK A01 T01961071  RH  016%=      5-min Rain = 0
KPG1 101526Z 19003KT 20/M07 A2996 RMK A01 T01961069  RH  016%=      5-min Rain = 0
KPG1 101527Z 18003KT 20/M07 A2996 RMK A01 T01971070  RH  016%=      5-min Rain = 0
KPG1 101528Z 19003KT 20/M07 A2996 RMK A01 T01981070  RH  016%=      5-min Rain = 0
KPG1 101529Z 19003KT 20/M07 A2996 RMK A01 T01991069  RH  016%=      5-min Rain = 0
KPG1 101530Z 16004KT 20/M07 A2996 RMK A01 T02001070  RH  016%=      5-min Rain = 0
KPG1 101531Z 18004KT 20/M07 A2996 RMK A01 T02011069  RH  015%=      5-min Rain = 0
KPG1 101532Z 18004KT 20/M07 A2996 RMK A01 T02021070  RH  015%=      5-min Rain = 0
KPG1 101533Z 18004KT 20/M07 A2996 RMK A01 T02041070  RH  015%=      5-min Rain = 0
KPG1 101534Z 18005KT 20/M07 A2996 RMK A01 T02041069  RH  015%=      5-min Rain = 0
KPG1 101535Z 17006KT 21/M07 A2996 RMK A01 T02061070  RH  015%=      5-min Rain = 0
KPG1 101536Z 19005KT 21/M07 A2996 RMK A01 T02061070  RH  015%=      5-min Rain = 0
KPG1 101537Z 19004KT 21/M07 A2996 RMK A01 T02051071  RH  015%=      5-min Rain = 0
KPG1 101538Z 18004KT 21/M07 A2996 RMK A01 T02051071  RH  015%=      5-min Rain = 0
KPG1 101539Z 18004KT 21/M07 A2996 RMK A01 T02051070  RH  015%=      5-min Rain = 0
KPG1 101540Z 18004KT 21/M07 A2996 RMK A01 T02051068  RH  015%=      5-min Rain = 0
KPG1 101541Z 18003KT 21/M07 A2996 RMK A01 T02051068  RH  015%=      5-min Rain = 0
KPG1 101542Z 19004KT 21/M07 A2996 RMK A01 T02061066  RH  015%=      5-min Rain = 0
KPG1 101543Z 19004KT 21/M07 A2996 RMK A01 T02081067  RH  015%=      5-min Rain = 0
KPG1 101544Z 21004KT 21/M07 A2996 RMK A01 T02101069  RH  015%=      5-min Rain = 0
KPG1 101545Z 21002KT 21/M07 A2996 RMK A01 T02091069  RH  015%=      5-min Rain = 0
KPG1 101546Z 18002KT 21/M07 A2996 RMK A01 T02101066  RH  015%=      5-min Rain = 0
KPG1 101547Z 19003KT 21/M07 A2996 RMK A01 T02111067  RH  015%=      5-min Rain = 0
KPG1 101548Z 21003KT 21/M07 A2996 RMK A01 T02111069  RH  015%=      5-min Rain = 0
KPG1 101549Z 22003KT 21/M07 A2996 RMK A01 T02101070  RH  015%=      5-min Rain = 0
KPG1 101550Z 24002KT 21/M07 A2996 RMK A01 T02091070  RH  015%=      5-min Rain = 0
KPG1 101551Z 21001KT 21/M07 A2996 RMK A01 T02091069  RH  015%=      5-min Rain = 0
KPG1 101552Z 18001KT 21/M07 A2996 RMK A01 T02101067  RH  015%=      5-min Rain = 0
KPG1 101553Z 18002KT 21/M07 A2996 RMK A01 T02121067  RH  015%=      5-min Rain = 0
KPG1 101554Z 21003KT 21/M07 A2996 RMK A01 T02141067  RH  015%=      5-min Rain = 0
KPG1 101555Z 20003KT 22/M07 A2996 RMK A01 T02151067  RH  014%=      5-min Rain = 0
KPG1 101556Z 20004KT 22/M07 A2996 RMK A01 T02171066  RH  014%=      5-min Rain = 0
KPG1 101557Z 21004KT 22/M07 A2996 RMK A01 T02191068  RH  014%=      5-min Rain = 0
KPG1 101558Z 22003KT 22/M07 A2996 RMK A01 T02191068  RH  014%=      5-min Rain = 0
KPG1 101559Z 22002KT 22/M07 A2996 RMK A01 T02191069  RH  014%=      5-min Rain = 0
KPG1 101600Z 24002KT 22/M07 A2996 RMK A01 T02191069  RH  014%=      5-min Rain = 0
KPG1 101601Z 25002KT 22/M07 A2996 RMK A01 T02201069  RH  014%=      5-min Rain = 0
KPG1 101602Z 18002KT 22/M07 A2996 RMK A01 T02211066  RH  014%=      5-min Rain = 0
KPG1 101603Z 19004KT 22/M07 A2996 RMK A01 T02241065  RH  014%=      5-min Rain = 0
KPG1 101604Z 19003KT 23/M07 A2996 RMK A01 T02271066  RH  014%=      5-min Rain = 0
KPG1 101605Z 17003KT 23/M07 A2996 RMK A01 T02291066  RH  013%=      5-min Rain = 0
KPG1 101606Z 21003KT 23/M07 A2996 RMK A01 T02311066  RH  013%=      5-min Rain = 0
KPG1 101607Z 22004KT 23/M07 A2996 RMK A01 T02331069  RH  013%=      5-min Rain = 0
KPG1 101608Z 19004KT 23/M07 A2995 RMK A01 T02321070  RH  013%=      5-min Rain = 0
KPG1 101609Z 18005KT 23/M07 A2995 RMK A01 T02311070  RH  013%=      5-min Rain = 0
KPG1 101610Z 19005KT 23/M07 A2995 RMK A01 T02311069  RH  013%=      5-min Rain = 0
KPG1 101611Z 18006KT 23/M07 A2996 RMK A01 T02331068  RH  013%=      5-min Rain = 0
KPG1 101612Z 17004KT 24/M07 A2996 RMK A01 T02351069  RH  013%=      5-min Rain = 0
KPG1 101613Z 20005KT 24/M07 A2996 RMK A01 T02361068  RH  013%=      5-min Rain = 0
KPG1 101614Z 20006KT 24/M07 A2996 RMK A01 T02381069  RH  012%=      5-min Rain = 0
KPG1 101615Z 19006KT 24/M07 A2996 RMK A01 T02381070  RH  012%=      5-min Rain = 0
KPG1 101616Z 19006KT 24/M07 A2996 RMK A01 T02371070  RH  012%=      5-min Rain = 0
KPG1 101617Z 19005KT 24/M07 A2996 RMK A01 T02371070  RH  012%=      5-min Rain = 0
KPG1 101618Z 20005KT 24/M07 A2996 RMK A01 T02391071  RH  012%=      5-min Rain = 0
KPG1 101619Z 21005KT 24/M07 A2996 RMK A01 T02401070  RH  012%=      5-min Rain = 0
KPG1 101620Z 17004KT 24/M07 A2996 RMK A01 T02411068  RH  012%=      5-min Rain = 0
KPG1 101621Z 14005KT 24/M07 A2996 RMK A01 T02431068  RH  012%=      5-min Rain = 0
KPG1 101622Z 13005KT 24/M07 A2996 RMK A01 T02441068  RH  012%=      5-min Rain = 0
KPG1 101623Z 14005KT 25/M07 A2996 RMK A01 T02461067  RH  012%=      5-min Rain = 0
KPG1 101624Z 15004KT 25/M07 A2996 RMK A01 T02461068  RH  012%=      5-min Rain = 0
KPG1 101625Z 17004KT 25/M07 A2996 RMK A01 T02461069  RH  012%=      5-min Rain = 0
KPG1 101626Z 19004KT 25/M07 A2996 RMK A01 T02461067  RH  012%=      5-min Rain = 0
KPG1 101627Z 20003KT 25/M07 A2996 RMK A01 T02471067  RH  012%=      5-min Rain = 0
KPG1 101628Z 18005KT 25/M07 A2996 RMK A01 T02481069  RH  012%=      5-min Rain = 0
KPG1 101629Z 20005KT 25/M07 A2996 RMK A01 T02471070  RH  012%=      5-min Rain = 0
KPG1 101630Z 19005KT 25/M07 A2996 RMK A01 T02471070  RH  012%=      5-min Rain = 0
KPG1 101631Z 20005KT 25/M07 A2996 RMK A01 T02481067  RH  012%=      5-min Rain = 0
KPG1 101632Z 21007KT 25/M07 A2996 RMK A01 T02521067  RH  012%=      5-min Rain = 0
KPG1 101633Z 20007KT 25/M07 A2996 RMK A01 T02531066  RH  012%=      5-min Rain = 0
KPG1 101634Z 23008KT 26/M07 A2996 RMK A01 T02561072  RH  011%=      5-min Rain = 0
KPG1 101635Z 23009KT 26/M08 A2996 RMK A01 T02561080  RH  010%=      5-min Rain = 0
KPG1 101636Z 26009KT 26/M08 A2996 RMK A01 T02571079  RH  010%=      5-min Rain = 0
KPG1 101637Z 26011G16KT 26/M08 A2996 RMK A01 T02581081  RH  010%=      5-min Rain = 0
KPG1 101638Z 25011G16KT 26/M08 A2996 RMK A01 T02571082  RH  010%=      5-min Rain = 0
KPG1 101639Z 26014KT 26/M08 A2996 RMK A01 T02551084  RH  010%=      5-min Rain = 0
KPG1 101640Z 25013KT 25/M08 A2996 RMK A01 T02531084  RH  010%=      5-min Rain = 0
KPG1 101641Z 25013KT 25/M08 A2996 RMK A01 T02531083  RH  010%=      5-min Rain = 0
KPG1 101642Z 26008KT 25/M08 A2996 RMK A01 T02541083  RH  010%=      5-min Rain = 0
KPG1 101643Z 24009KT 25/M08 A2996 RMK A01 T02541082  RH  010%=      5-min Rain = 0
KPG1 101644Z 25013KT 26/M08 A2996 RMK A01 T02551083  RH  010%=      5-min Rain = 0
KPG1 101645Z 25012KT 26/M08 A2996 RMK A01 T02551084  RH  010%=      5-min Rain = 0
KPG1 101646Z 25011G16KT 26/M08 A2996 RMK A01 T02551082  RH  010%=      5-min Rain = 0
KPG1 101647Z 26010KT 26/M08 A2996 RMK A01 T02571081  RH  010%=      5-min Rain = 0
KPG1 101648Z 25009KT 26/M08 A2996 RMK A01 T02591080  RH  010%=      5-min Rain = 0
KPG1 101649Z 26012KT 26/M08 A2996 RMK A01 T02591083  RH  010%=      5-min Rain = 0
KPG1 101650Z 25011KT 26/M08 A2996 RMK A01 T02571084  RH  010%=      5-min Rain = 0
KPG1 101651Z 28008KT 26/M08 A2996 RMK A01 T02551083  RH  010%=      5-min Rain = 0
KPG1 101652Z 29010KT 26/M08 A2996 RMK A01 T02561083  RH  010%=      5-min Rain = 0
KPG1 101653Z 27010KT 26/M08 A2996 RMK A01 T02561082  RH  010%=      5-min Rain = 0
KPG1 101654Z 28007KT 26/M08 A2996 RMK A01 T02571081  RH  010%=      5-min Rain = 0
KPG1 101655Z 28010KT 26/M08 A2996 RMK A01 T02591081  RH  010%=      5-min Rain = 0
KPG1 101656Z 27008KT 26/M08 A2996 RMK A01 T02571082  RH  010%=      5-min Rain = 0
KPG1 101657Z 25010KT 26/M08 A2996 RMK A01 T02571081  RH  010%=      5-min Rain = 0
KPG1 101658Z 25007KT 26/M08 A2996 RMK A01 T02571080  RH  010%=      5-min Rain = 0
KPG1 101659Z 28013KT 26/M08 A2996 RMK A01 T02591080  RH  010%=      5-min Rain = 0
KPG1 101700Z 28009KT 26/M08 A2996 RMK A01 T02581084  RH  010%=      5-min Rain = 0
KPG1 101701Z 28007KT 26/M08 A2996 RMK A01 T02561081  RH  010%=      5-min Rain = 0
KPG1 101702Z 27006KT 26/M08 A2996 RMK A01 T02571083  RH  010%=      5-min Rain = 0
KPG1 101703Z 28007KT 26/M08 A2996 RMK A01 T02551082  RH  010%=      5-min Rain = 0
KPG1 101704Z 28007KT 26/M08 A2996 RMK A01 T02561082  RH  010%=      5-min Rain = 0
KPG1 101705Z 26007KT 26/M08 A2996 RMK A01 T02571081  RH  010%=      5-min Rain = 0
KPG1 101706Z 27007KT 26/M08 A2996 RMK A01 T02591080  RH  010%=      5-min Rain = 0
KPG1 101707Z 30008KT 26/M08 A2996 RMK A01 T02611080  RH  010%=      5-min Rain = 0
KPG1 101708Z 29011KT 26/M08 A2996 RMK A01 T02601082  RH  010%=      5-min Rain = 0
KPG1 101709Z 28010KT 26/M08 A2996 RMK A01 T02591082  RH  010%=      5-min Rain = 0
KPG1 101710Z 28007KT 26/M08 A2996 RMK A01 T02581082  RH  010%=      5-min Rain = 0
KPG1 101711Z 28007KT 26/M08 A2996 RMK A01 T02581081  RH  010%=      5-min Rain = 0
KPG1 101712Z 29006KT 26/M08 A2995 RMK A01 T02571082  RH  010%=      5-min Rain = 0
KPG1 101713Z 27007KT 26/M08 A2995 RMK A01 T02561080  RH  010%=      5-min Rain = 0
KPG1 101714Z 27009KT 26/M08 A2995 RMK A01 T02591078  RH  010%=      5-min Rain = 0
KPG1 101715Z 26009KT 26/M08 A2995 RMK A01 T02621080  RH  010%=      5-min Rain = 0
KPG1 101716Z 27007KT 26/M08 A2995 RMK A01 T02611080  RH  010%=      5-min Rain = 0
KPG1 101717Z 26008KT 26/M08 A2995 RMK A01 T02601081  RH  010%=      5-min Rain = 0
KPG1 101718Z 27011KT 26/M08 A2995 RMK A01 T02601080  RH  010%=      5-min Rain = 0
KPG1 101719Z 27011KT 26/M08 A2995 RMK A01 T02601081  RH  010%=      5-min Rain = 0
KPG1 101720Z 26007KT 26/M08 A2995 RMK A01 T02581081  RH  010%=      5-min Rain = 0
KPG1 101721Z 26006KT 26/M08 A2995 RMK A01 T02591079  RH  010%=      5-min Rain = 0
KPG1 101722Z 26006KT 26/M08 A2995 RMK A01 T02601079  RH  010%=      5-min Rain = 0
KPG1 101723Z 28003KT 26/M08 A2995 RMK A01 T02601080  RH  010%=      5-min Rain = 0
KPG1 101724Z 28007KT 26/M08 A2995 RMK A01 T02611080  RH  010%=      5-min Rain = 0
KPG1 101725Z 29010KT 26/M08 A2995 RMK A01 T02631078  RH  010%=      5-min Rain = 0
KPG1 101726Z 28008KT 27/M08 A2995 RMK A01 T02651080  RH  010%=      5-min Rain = 0
KPG1 101727Z 28009KT 26/M08 A2995 RMK A01 T02631080  RH  010%=      5-min Rain = 0
KPG1 101728Z 27008KT 26/M08 A2995 RMK A01 T02631079  RH  010%=      5-min Rain = 0
KPG1 101729Z 26009KT 26/M08 A2995 RMK A01 T02631079  RH  010%=      5-min Rain = 0
KPG1 101730Z 26008KT 26/M08 A2995 RMK A01 T02641080  RH  010%=      5-min Rain = 0
KPG1 101731Z 26004KT 26/M08 A2995 RMK A01 T02631080  RH  010%=      5-min Rain = 0
KPG1 101732Z 24004KT 26/M08 A2995 RMK A01 T02631079  RH  010%=      5-min Rain = 0
KPG1 101733Z 27007KT 26/M08 A2994 RMK A01 T02631080  RH  010%=      5-min Rain = 0
KPG1 101734Z 28007KT 26/M08 A2994 RMK A01 T02631080  RH  010%=      5-min Rain = 0
KPG1 101735Z 28007KT 26/M08 A2994 RMK A01 T02641079  RH  010%=      5-min Rain = 0
KPG1 101736Z 26010KT 27/M08 A2994 RMK A01 T02681076  RH  010%=      5-min Rain = 0
KPG1 101737Z 24010KT 27/M08 A2994 RMK A01 T02701078  RH  010%=      5-min Rain = 0
KPG1 101738Z 24007KT 27/M08 A2994 RMK A01 T02691080  RH  009%=      5-min Rain = 0
KPG1 101739Z 27008KT 27/M08 A2994 RMK A01 T02681080  RH  010%=      5-min Rain = 0
KPG1 101740Z 28005KT 27/M08 A2994 RMK A01 T02681077  RH  010%=      5-min Rain = 0
KPG1 101741Z 27004KT 27/M08 A2994 RMK A01 T02691079  RH  010%=      5-min Rain = 0
KPG1 101742Z 26006KT 27/M08 A2994 RMK A01 T02691079  RH  010%=      5-min Rain = 0
KPG1 101743Z 27005KT 27/M08 A2994 RMK A01 T02701078  RH  010%=      5-min Rain = 0
KPG1 101744Z 26007KT 27/M08 A2994 RMK A01 T02701079  RH  010%=      5-min Rain = 0
KPG1 101745Z 27005KT 27/M08 A2994 RMK A01 T02701079  RH  009%=      5-min Rain = 0
KPG1 101746Z 26005KT 27/M08 A2994 RMK A01 T02721078  RH  009%=      5-min Rain = 0
KPG1 101747Z 31005KT 27/M08 A2993 RMK A01 T02721078  RH  009%=      5-min Rain = 0
KPG1 101748Z 29005KT 27/M08 A2993 RMK A01 T02731078  RH  009%=      5-min Rain = 0
KPG1 101749Z 26003G8KT 27/M08 A2993 RMK A01 T02721078  RH  009%=      5-min Rain = 0
KPG1 101750Z 27014G20KT 27/M08 A2993 RMK A01 T02721076  RH  010%=      5-min Rain = 0
KPG1 101751Z 27011KT 28/M07 A2993 RMK A01 T02751072  RH  010%=      5-min Rain = 0
KPG1 101752Z 25013KT 28/M07 A2993 RMK A01 T02801069  RH  010%=      5-min Rain = 0
KPG1 101753Z 23014KT 28/M07 A2993 RMK A01 T02831074  RH  009%=      5-min Rain = 0
KPG1 101754Z 25013KT 28/M07 A2993 RMK A01 T02831074  RH  009%=      5-min Rain = 0
KPG1 101755Z 27012KT 29/M07 A2993 RMK A01 T02851072  RH  009%=      5-min Rain = 0
KPG1 101756Z 26012G17KT 28/M07 A2993 RMK A01 T02841073  RH  009%=      5-min Rain = 0
KPG1 101757Z 26012G20KT 28/M07 A2993 RMK A01 T02831072  RH  009%=      5-min Rain = 0
KPG1 101758Z 27016KT 28/M07 A2993 RMK A01 T02831071  RH  009%=      5-min Rain = 0
KPG1 101759Z 25015KT 28/M07 A2993 RMK A01 T02811072  RH  009%=      5-min Rain = 0
KPG1 101800Z 25014G19KT 28/M07 A2993 RMK A01 T02801073  RH  009%=      5-min Rain = 0
KPG1 101801Z 25014KT 28/M07 A2993 RMK A01 T02831070  RH  009%=      5-min Rain = 0
KPG1 101802Z 25014KT 28/M07 A2993 RMK A01 T02841072  RH  009%=      5-min Rain = 0
KPG1 101803Z 24013KT 28/M07 A2993 RMK A01 T02841072  RH  009%=      5-min Rain = 0
KPG1 101804Z 26011KT 28/M07 A2993 RMK A01 T02841072  RH  009%=      5-min Rain = 0
KPG1 101805Z 26013KT 28/M07 A2993 RMK A01 T02831071  RH  009%=      5-min Rain = 0
KPG1 101806Z 27014KT 28/M07 A2993 RMK A01 T02821070  RH  009%=      5-min Rain = 0
KPG1 101807Z 28013KT 28/M07 A2993 RMK A01 T02831069  RH  010%=      5-min Rain = 0
KPG1 101808Z 28011KT 28/M07 A2993 RMK A01 T02831069  RH  009%=      5-min Rain = 0
KPG1 101809Z 28011G16KT 28/M07 A2993 RMK A01 T02831071  RH  009%=      5-min Rain = 0
KPG1 101810Z 28009KT 28/M07 A2993 RMK A01 T02821072  RH  009%=      5-min Rain = 0
KPG1 101811Z 28009KT 28/M07 A2993 RMK A01 T02821072  RH  009%=      5-min Rain = 0
KPG1 101812Z 28009KT 28/M07 A2993 RMK A01 T02811072  RH  009%=      5-min Rain = 0
KPG1 101813Z 26011KT 28/M07 A2993 RMK A01 T02821071  RH  009%=      5-min Rain = 0
KPG1 101814Z 28011KT 28/M07 A2993 RMK A01 T02821071  RH  009%=      5-min Rain = 0
KPG1 101815Z 26010G15KT 28/M07 A2993 RMK A01 T02841068  RH  009%=      5-min Rain = 0
KPG1 101816Z 25011KT 29/M07 A2993 RMK A01 T02881070  RH  009%=      5-min Rain = 0
KPG1 101817Z 24010KT 29/M07 A2992 RMK A01 T02861074  RH  009%=      5-min Rain = 0
KPG1 101818Z 25010KT 29/M07 A2992 RMK A01 T02851072  RH  009%=      5-min Rain = 0
KPG1 101819Z 30010G15KT 29/M07 A2992 RMK A01 T02871071  RH  009%=      5-min Rain = 0
KPG1 101820Z 28008KT 29/M07 A2992 RMK A01 T02861072  RH  009%=      5-min Rain = 0
KPG1 101821Z 27008KT 29/M07 A2992 RMK A01 T02851071  RH  009%=      5-min Rain = 0
KPG1 101822Z 26009KT 29/M07 A2992 RMK A01 T02881072  RH  009%=      5-min Rain = 0
KPG1 101823Z 26009KT 29/M07 A2992 RMK A01 T02871070  RH  009%=      5-min Rain = 0
KPG1 101824Z 24007KT 29/M07 A2992 RMK A01 T02901070  RH  009%=      5-min Rain = 0
KPG1 101825Z 25009KT 29/M07 A2992 RMK A01 T02911068  RH  009%=      5-min Rain = 0
KPG1 101826Z 24009KT 29/M07 A2992 RMK A01 T02931069  RH  009%=      5-min Rain = 0
KPG1 101827Z 23011KT 29/M07 A2992 RMK A01 T02931071  RH  009%=      5-min Rain = 0
KPG1 101828Z 21010KT 29/M07 A2991 RMK A01 T02911072  RH  009%=      5-min Rain = 0
KPG1 101829Z 21011KT 29/M07 A2991 RMK A01 T02911070  RH  009%=      5-min Rain = 0
KPG1 101830Z 23015KT 29/M07 A2991 RMK A01 T02921071  RH  009%=      5-min Rain = 0
KPG1 101831Z 24016KT 29/M07 A2991 RMK A01 T02921070  RH  009%=      5-min Rain = 0
KPG1 101832Z 23014KT 29/M07 A2991 RMK A01 T02921070  RH  009%=      5-min Rain = 0
KPG1 101833Z 21016KT 29/M07 A2991 RMK A01 T02921070  RH  009%=      5-min Rain = 0
KPG1 101834Z 24011KT 29/M07 A2991 RMK A01 T02911071  RH  009%=      5-min Rain = 0
KPG1 101835Z 26012G17KT 29/M07 A2991 RMK A01 T02921070  RH  009%=      5-min Rain = 0
KPG1 101836Z 25012KT 29/M07 A2991 RMK A01 T02931069  RH  009%=      5-min Rain = 0
KPG1 101837Z 25012KT 29/M07 A2991 RMK A01 T02931070  RH  009%=      5-min Rain = 0
KPG1 101838Z 25015KT 29/M07 A2991 RMK A01 T02921072  RH  009%=      5-min Rain = 0
KPG1 101839Z 25011KT 29/M07 A2991 RMK A01 T02901071  RH  009%=      5-min Rain = 0
KPG1 101840Z 25010KT 29/M07 A2991 RMK A01 T02891071  RH  009%=      5-min Rain = 0
KPG1 101841Z 24012G17KT 29/M07 A299 RMK A01 T02911071  RH  009%=      5-min Rain = 0
KPG1 101842Z 23014KT 29/M07 A299 RMK A01 T02941071  RH  009%=      5-min Rain = 0
KPG1 101843Z 24013G18KT 29/M07 A299 RMK A01 T02931071  RH  009%=      5-min Rain = 0
KPG1 101844Z 24010G15KT 29/M07 A299 RMK A01 T02911072  RH  009%=      5-min Rain = 0
KPG1 101845Z 23007KT 29/M07 A299 RMK A01 T02891072  RH  009%=      5-min Rain = 0
KPG1 101846Z 24011G16KT 29/M07 A299 RMK A01 T02891071  RH  009%=      5-min Rain = 0
KPG1 101847Z 26011G16KT 29/M07 A299 RMK A01 T02931068  RH  009%=      5-min Rain = 0
KPG1 101848Z 26012KT 29/M07 A299 RMK A01 T02941069  RH  009%=      5-min Rain = 0
KPG1 101849Z 27016KT 30/M07 A2989 RMK A01 T02951068  RH  009%=      5-min Rain = 0
KPG1 101850Z 26013G18KT 29/M07 A299 RMK A01 T02941068  RH  009%=      5-min Rain = 0
KPG1 101851Z 24018KT 29/M07 A299 RMK A01 T02941067  RH  009%=      5-min Rain = 0
KPG1 101852Z 23012KT 30/M07 A299 RMK A01 T02951067  RH  009%=      5-min Rain = 0
KPG1 101853Z 22011KT 30/M07 A299 RMK A01 T02971067  RH  009%=      5-min Rain = 0
KPG1 101854Z 24015KT 30/M07 A2989 RMK A01 T02971068  RH  009%=      5-min Rain = 0
KPG1 101855Z 22013KT 30/M07 A299 RMK A01 T02981067  RH  009%=      5-min Rain = 0
KPG1 101856Z 25015KT 30/M07 A2989 RMK A01 T02971067  RH  009%=      5-min Rain = 0
KPG1 101857Z 26016KT 30/M07 A2989 RMK A01 T02971068  RH  009%=      5-min Rain = 0
KPG1 101858Z 26013KT 30/M07 A299 RMK A01 T02991069  RH  009%=      5-min Rain = 0
KPG1 101859Z 27012KT 30/M07 A2989 RMK A01 T02961071  RH  009%=      5-min Rain = 0
KPG1 101900Z 26011KT 29/M07 A2989 RMK A01 T02941070  RH  009%=      5-min Rain = 0
KPG1 101901Z 25012KT 29/M07 A2989 RMK A01 T02921070  RH  009%=      5-min Rain = 0
KPG1 101902Z 25010KT 29/M07 A2989 RMK A01 T02921071  RH  009%=      5-min Rain = 0
KPG1 101903Z 24009KT 29/M07 A2989 RMK A01 T02931070  RH  009%=      5-min Rain = 0
KPG1 101904Z 22011KT 30/M07 A2989 RMK A01 T02951070  RH  009%=      5-min Rain = 0
KPG1 101905Z 24013KT 30/M07 A2989 RMK A01 T02981069  RH  009%=      5-min Rain = 0
KPG1 101906Z 25014KT 30/M07 A2989 RMK A01 T03021068  RH  009%=      5-min Rain = 0
KPG1 101907Z 25014KT 30/M07 A2989 RMK A01 T03031067  RH  009%=      5-min Rain = 0
KPG1 101908Z 24013KT 30/M07 A2989 RMK A01 T03031069  RH  008%=      5-min Rain = 0
KPG1 101909Z 26011KT 30/M07 A2989 RMK A01 T03011070  RH  009%=      5-min Rain = 0
KPG1 101910Z 25012G20KT 30/M07 A2988 RMK A01 T02991068  RH  009%=      5-min Rain = 0
KPG1 101911Z 24015KT 30/M07 A2988 RMK A01 T03001069  RH  009%=      5-min Rain = 0
KPG1 101912Z 23019KT 30/M07 A2988 RMK A01 T02991067  RH  009%=      5-min Rain = 0
KPG1 101913Z 21017G24KT 30/M07 A2988 RMK A01 T02991067  RH  009%=      5-min Rain = 0
KPG1 101914Z 21013KT 30/M07 A2988 RMK A01 T02981067  RH  009%=      5-min Rain = 0
KPG1 101915Z 22011KT 30/M06 A2988 RMK A01 T02981064  RH  009%=      5-min Rain = 0
KPG1 101916Z 24013KT 30/M06 A2988 RMK A01 T03001063  RH  009%=      5-min Rain = 0
KPG1 101917Z 24016KT 30/M07 A2988 RMK A01 T03011065  RH  009%=      5-min Rain = 0
KPG1 101918Z 25013KT 30/M07 A2988 RMK A01 T02991068  RH  009%=      5-min Rain = 0
KPG1 101919Z 25016KT 30/M07 A2988 RMK A01 T02981067  RH  009%=      5-min Rain = 0
KPG1 101920Z 25013KT 30/M07 A2988 RMK A01 T02981069  RH  009%=      5-min Rain = 0
KPG1 101921Z 26011KT 30/M07 A2988 RMK A01 T02971069  RH  009%=      5-min Rain = 0
KPG1 101922Z 26010KT 30/M07 A2988 RMK A01 T02951067  RH  009%=      5-min Rain = 0
KPG1 101923Z 25005KT 29/M07 A2987 RMK A01 T02941067  RH  009%=      5-min Rain = 0
KPG1 101924Z 26008G13KT 29/M07 A2987 RMK A01 T02921066  RH  009%=      5-min Rain = 0
KPG1 101925Z 26006KT 29/M07 A2987 RMK A01 T02931065  RH  009%=      5-min Rain = 0
KPG1 101926Z 27006KT 30/M07 A2987 RMK A01 T02951067  RH  009%=      5-min Rain = 0
KPG1 101927Z 23013G19KT 30/M07 A2987 RMK A01 T02971065  RH  009%=      5-min Rain = 0
KPG1 101928Z 23014KT 30/M06 A2987 RMK A01 T03001063  RH  009%=      5-min Rain = 0
KPG1 101929Z 24012KT 30/M06 A2987 RMK A01 T03001063  RH  009%=      5-min Rain = 0
KPG1 101930Z 25015KT 30/M06 A2987 RMK A01 T03031061  RH  009%=      5-min Rain = 0
KPG1 101931Z 26017KT 30/M06 A2987 RMK A01 T03041063  RH  009%=      5-min Rain = 0
KPG1 101932Z 25019KT 30/M06 A2987 RMK A01 T03011063  RH  009%=      5-min Rain = 0
KPG1 101933Z 25015KT 30/M06 A2987 RMK A01 T03001064  RH  009%=      5-min Rain = 0
KPG1 101934Z 26016G23KT 30/M06 A2987 RMK A01 T02991064  RH  009%=      5-min Rain = 0
KPG1 101935Z 26016KT 30/M06 A2987 RMK A01 T03001063  RH  009%=      5-min Rain = 0
KPG1 101936Z 25015KT 30/M06 A2987 RMK A01 T03021060  RH  009%=      5-min Rain = 0
KPG1 101937Z 26013KT 30/M06 A2987 RMK A01 T03041058  RH  009%=      5-min Rain = 0
KPG1 101938Z 24014KT 31/M06 A2986 RMK A01 T03071060  RH  009%=      5-min Rain = 0
KPG1 101939Z 24013KT 31/M06 A2986 RMK A01 T03061062  RH  009%=      5-min Rain = 0
KPG1 101940Z 23013KT 30/M06 A2986 RMK A01 T03031062  RH  009%=      5-min Rain = 0
KPG1 101941Z 24011KT 30/M06 A2986 RMK A01 T03031060  RH  009%=      5-min Rain = 0
KPG1 101942Z 26012KT 30/M06 A2986 RMK A01 T03041061  RH  009%=      5-min Rain = 0
KPG1 101943Z 26009KT 30/M07 A2986 RMK A01 T03031065  RH  009%=      5-min Rain = 0
KPG1 101944Z 24009KT 30/M06 A2986 RMK A01 T03021061  RH  009%=      5-min Rain = 0
KPG1 101945Z 26013G20KT 31/M06 A2986 RMK A01 T03071061  RH  009%=      5-min Rain = 0
KPG1 101946Z 27013G21KT 31/M07 A2986 RMK A01 T03071067  RH  008%=      5-min Rain = 0
KPG1 101947Z 28013G18KT 31/M07 A2986 RMK A01 T03071067  RH  008%=      5-min Rain = 0
KPG1 101948Z 26012KT 31/M07 A2986 RMK A01 T03051069  RH  008%=      5-min Rain = 0
KPG1 101949Z 27012KT 30/M07 A2986 RMK A01 T03021071  RH  008%=      5-min Rain = 0
KPG1 101950Z 26011KT 30/M07 A2986 RMK A01 T02981072  RH  008%=      5-min Rain = 0
KPG1 101951Z 27012G17KT 30/M07 A2986 RMK A01 T02961071  RH  009%=      5-min Rain = 0
KPG1 101952Z 27009KT 30/M07 A2985 RMK A01 T02971068  RH  009%=      5-min Rain = 0
KPG1 101953Z 28010G17KT 30/M07 A2985 RMK A01 T03001068  RH  009%=      5-min Rain = 0
KPG1 101954Z 27012G17KT 30/M07 A2986 RMK A01 T03011069  RH  009%=      5-min Rain = 0
KPG1 101955Z 27013KT 30/M07 A2986 RMK A01 T02991069  RH  009%=      5-min Rain = 0
KPG1 101956Z 27012KT 30/M07 A2985 RMK A01 T03001068  RH  009%=      5-min Rain = 0
KPG1 101957Z 26010KT 30/M07 A2985 RMK A01 T03001068  RH  009%=      5-min Rain = 0
KPG1 101958Z 27011KT 30/M07 A2985 RMK A01 T03041067  RH  009%=      5-min Rain = 0
KPG1 101959Z 27011G16KT 31/M07 A2985 RMK A01 T03061069  RH  008%=      5-min Rain = 0
KPG1 102000Z 26011G16KT 31/M07 A2985 RMK A01 T03051069  RH  008%=      5-min Rain = 0
KPG1 102001Z 26013G19KT 30/M07 A2985 RMK A01 T03041069  RH  008%=      5-min Rain = 0
KPG1 102002Z 27014KT 31/M07 A2985 RMK A01 T03051071  RH  008%=      5-min Rain = 0
KPG1 102003Z 27018KT 31/M07 A2985 RMK A01 T03051071  RH  008%=      5-min Rain = 0
KPG1 102004Z 27014G19KT 30/M07 A2985 RMK A01 T03041072  RH  008%=      5-min Rain = 0
KPG1 102005Z 26011KT 30/M07 A2985 RMK A01 T03021072  RH  008%=      5-min Rain = 0
KPG1 102006Z 26016KT 30/M07 A2985 RMK A01 T03031069  RH  008%=      5-min Rain = 0
KPG1 102007Z 26015KT 30/M07 A2985 RMK A01 T03031072  RH  008%=      5-min Rain = 0
KPG1 102008Z 27009KT 30/M07 A2985 RMK A01 T03011072  RH  008%=      5-min Rain = 0
KPG1 102009Z 27007KT 30/M07 A2985 RMK A01 T02981072  RH  009%=      5-min Rain = 0
KPG1 102010Z 25007KT 30/M07 A2985 RMK A01 T02991070  RH  009%=      5-min Rain = 0
KPG1 102011Z 25011KT 30/M07 A2985 RMK A01 T03021069  RH  008%=      5-min Rain = 0
KPG1 102012Z 27011KT 30/M07 A2985 RMK A01 T03041069  RH  008%=      5-min Rain = 0
KPG1 102013Z 28011G16KT 30/M07 A2985 RMK A01 T03041070  RH  008%=      5-min Rain = 0
KPG1 102014Z 28008KT 30/M07 A2985 RMK A01 T03031070  RH  008%=      5-min Rain = 0
KPG1 102015Z 26012G17KT 31/M07 A2985 RMK A01 T03051069  RH  008%=      5-min Rain = 0
KPG1 102016Z 24011KT 30/M07 A2985 RMK A01 T03041070  RH  008%=      5-min Rain = 0
KPG1 102017Z 24015KT 31/M07 A2985 RMK A01 T03061072  RH  008%=      5-min Rain = 0
KPG1 102018Z 25012KT 31/M07 A2985 RMK A01 T03061073  RH  008%=      5-min Rain = 0
KPG1 102019Z 25013KT 31/M07 A2985 RMK A01 T03081073  RH  008%=      5-min Rain = 0
KPG1 102020Z 24013KT 31/M07 A2985 RMK A01 T03091074  RH  008%=      5-min Rain = 0
KPG1 102021Z 23011KT 31/M07 A2985 RMK A01 T03091074  RH  008%=      5-min Rain = 0
KPG1 102022Z 24010KT 31/M07 A2985 RMK A01 T03081074  RH  008%=      5-min Rain = 0
KPG1 102023Z 25012G21KT 31/M07 A2985 RMK A01 T03111072  RH  008%=      5-min Rain = 0
KPG1 102024Z 24018G24KT 31/M08 A2984 RMK A01 T03131075  RH  008%=      5-min Rain = 0
KPG1 102025Z 24017KT 31/M08 A2984 RMK A01 T03101078  RH  008%=      5-min Rain = 0
KPG1 102026Z 24013KT 31/M08 A2984 RMK A01 T03081079  RH  008%=      5-min Rain = 0
KPG1 102027Z 24011KT 31/M08 A2985 RMK A01 T03061078  RH  008%=      5-min Rain = 0
KPG1 102028Z 26011KT 31/M08 A2985 RMK A01 T03071077  RH  008%=      5-min Rain = 0
KPG1 102029Z 27011G17KT 31/M08 A2985 RMK A01 T03061078  RH  008%=      5-min Rain = 0
KPG1 102030Z 26014G21KT 31/M08 A2985 RMK A01 T03051079  RH  008%=      5-min Rain = 0
KPG1 102031Z 25019KT 31/M08 A2984 RMK A01 T03081077  RH  008%=      5-min Rain = 0
KPG1 102032Z 25015G21KT 31/M08 A2985 RMK A01 T03091076  RH  008%=      5-min Rain = 0
KPG1 102033Z 25012G18KT 31/M08 A2985 RMK A01 T03081076  RH  008%=      5-min Rain = 0
KPG1 102034Z 26012G17KT 31/M08 A2985 RMK A01 T03101076  RH  008%=      5-min Rain = 0
KPG1 102035Z 27015G21KT 31/M08 A2984 RMK A01 T03101079  RH  008%=      5-min Rain = 0
KPG1 102036Z 27016KT 31/M08 A2984 RMK A01 T03091082  RH  007%=      5-min Rain = 0
KPG1 102037Z 26016KT 31/M08 A2985 RMK A01 T03091083  RH  007%=      5-min Rain = 0
KPG1 102038Z 27012G17KT 31/M08 A2985 RMK A01 T03091083  RH  007%=      5-min Rain = 0
KPG1 102039Z 29008G14KT 31/M08 A2985 RMK A01 T03051083  RH  007%=      5-min Rain = 0
KPG1 102040Z 25012G19KT 31/M08 A2985 RMK A01 T03071081  RH  008%=      5-min Rain = 0
KPG1 102041Z 26013G21KT 31/M08 A2984 RMK A01 T03091081  RH  007%=      5-min Rain = 0
KPG1 102042Z 29017G22KT 31/M08 A2984 RMK A01 T03071081  RH  007%=      5-min Rain = 0
KPG1 102043Z 28017KT 31/M08 A2984 RMK A01 T03051081  RH  008%=      5-min Rain = 0
KPG1 102044Z 29013KT 30/M08 A2984 RMK A01 T03041080  RH  008%=      5-min Rain = 0
KPG1 102045Z 29016KT 30/M08 A2984 RMK A01 T03021081  RH  008%=      5-min Rain = 0
KPG1 102046Z 27014G23KT 30/M08 A2984 RMK A01 T03021083  RH  008%=      5-min Rain = 0
KPG1 102047Z 27019KT 30/M08 A2984 RMK A01 T03021080  RH  008%=      5-min Rain = 0
KPG1 102048Z 27017KT 30/M08 A2984 RMK A01 T03031076  RH  008%=      5-min Rain = 0
KPG1 102049Z 27015G20KT 30/M07 A2984 RMK A01 T03041073  RH  008%=      5-min Rain = 0
KPG1 102050Z 26012G17KT 31/M07 A2984 RMK A01 T03051073  RH  008%=      5-min Rain = 0
KPG1 102051Z 26016G21KT 31/M07 A2984 RMK A01 T03061074  RH  008%=      5-min Rain = 0
KPG1 102052Z 26009G14KT 31/M07 A2984 RMK A01 T03061073  RH  008%=      5-min Rain = 0
KPG1 102053Z 26016KT 31/M07 A2984 RMK A01 T03061073  RH  008%=      5-min Rain = 0
KPG1 102054Z 27018G23KT 31/M08 A2984 RMK A01 T03071075  RH  008%=      5-min Rain = 0
KPG1 102055Z 28014G19KT 31/M08 A2984 RMK A01 T03081078  RH  008%=      5-min Rain = 0
KPG1 102056Z 27015G20KT 31/M08 A2984 RMK A01 T03071077  RH  008%=      5-min Rain = 0
KPG1 102057Z 24016G21KT 31/M08 A2984 RMK A01 T03081079  RH  008%=      5-min Rain = 0
KPG1 102058Z 25012G17KT 31/M08 A2984 RMK A01 T03091079  RH  008%=      5-min Rain = 0
KPG1 102059Z 24011KT 31/M08 A2984 RMK A01 T03101077  RH  008%=      5-min Rain = 0
KPG1 102100Z 25016KT 31/M08 A2984 RMK A01 T03131075  RH  008%=      5-min Rain = 0
KPG1 102101Z 25014KT 31/M08 A2984 RMK A01 T03121075  RH  008%=      5-min Rain = 0
KPG1 102102Z 23013KT 31/M08 A2984 RMK A01 T03111075  RH  008%=      5-min Rain = 0
KPG1 102103Z 24011KT 31/M07 A2984 RMK A01 T03091074  RH  008%=      5-min Rain = 0
KPG1 102104Z 25012KT 31/M07 A2984 RMK A01 T03101073  RH  008%=      5-min Rain = 0
KPG1 102105Z 23016G21KT 31/M07 A2984 RMK A01 T03101073  RH  008%=      5-min Rain = 0
KPG1 102106Z 25013KT 31/M07 A2984 RMK A01 T03121072  RH  008%=      5-min Rain = 0
KPG1 102107Z 25012KT 31/M07 A2984 RMK A01 T03101073  RH  008%=      5-min Rain = 0
KPG1 102108Z 27017G23KT 31/M07 A2984 RMK A01 T03091074  RH  008%=      5-min Rain = 0
KPG1 102109Z 26012KT 31/M08 A2984 RMK A01 T03081080  RH  008%=      5-min Rain = 0
KPG1 102110Z 26015G21KT 31/M08 A2984 RMK A01 T03081081  RH  008%=      5-min Rain = 0
KPG1 102111Z 25014KT 31/M08 A2984 RMK A01 T03091082  RH  007%=      5-min Rain = 0
KPG1 102112Z 26020KT 31/M08 A2983 RMK A01 T03111081  RH  007%=      5-min Rain = 0
KPG1 102113Z 25018KT 31/M08 A2984 RMK A01 T03121080  RH  007%=      5-min Rain = 0
KPG1 102114Z 25013KT 31/M08 A2984 RMK A01 T03111081  RH  007%=      5-min Rain = 0
KPG1 102115Z 26012KT 31/M08 A2983 RMK A01 T03111080  RH  007%=      5-min Rain = 0
KPG1 102116Z 25016G21KT 31/M08 A2983 RMK A01 T03111080  RH  007%=      5-min Rain = 0
KPG1 102117Z 26017KT 31/M08 A2983 RMK A01 T03111079  RH  007%=      5-min Rain = 0
KPG1 102118Z 26015G21KT 31/M08 A2983 RMK A01 T03111079  RH  007%=      5-min Rain = 0
KPG1 102119Z 24015KT 31/M08 A2983 RMK A01 T03111078  RH  008%=      5-min Rain = 0
KPG1 102120Z 24015KT 32/M08 A2983 RMK A01 T03151079  RH  007%=      5-min Rain = 0
KPG1 102121Z 24014G19KT 31/M08 A2983 RMK A01 T03121080  RH  007%=      5-min Rain = 0
KPG1 102122Z 23017KT 31/M08 A2982 RMK A01 T03101080  RH  007%=      5-min Rain = 0
KPG1 102123Z 25020KT 31/M08 A2982 RMK A01 T03101080  RH  007%=      5-min Rain = 0
KPG1 102124Z 25019KT 31/M08 A2982 RMK A01 T03111081  RH  007%=      5-min Rain = 0
KPG1 102125Z 25016KT 31/M08 A2983 RMK A01 T03111083  RH  007%=      5-min Rain = 0
KPG1 102126Z 24016G23KT 31/M09 A2983 RMK A01 T03101085  RH  007%=      5-min Rain = 0
KPG1 102127Z 25019KT 31/M09 A2983 RMK A01 T03091087  RH  007%=      5-min Rain = 0
KPG1 102128Z 25020KT 31/M08 A2983 RMK A01 T03071084  RH  007%=      5-min Rain = 0
KPG1 102129Z 24014KT 31/M08 A2983 RMK A01 T03071082  RH  007%=      5-min Rain = 0
KPG1 102130Z 24012KT 31/M08 A2983 RMK A01 T03091080  RH  007%=      5-min Rain = 0
KPG1 102131Z 23013KT 31/M08 A2983 RMK A01 T03091082  RH  007%=      5-min Rain = 0
KPG1 102132Z 24009KT 31/M08 A2983 RMK A01 T03071084  RH  007%=      5-min Rain = 0
KPG1 102133Z 25010KT 31/M09 A2983 RMK A01 T03061085  RH  007%=      5-min Rain = 0
KPG1 102134Z 25013KT 31/M08 A2983 RMK A01 T03051084  RH  007%=      5-min Rain = 0
KPG1 102135Z 26011KT 31/M08 A2983 RMK A01 T03051083  RH  007%=      5-min Rain = 0
KPG1 102136Z 26015G20KT 31/M08 A2983 RMK A01 T03071081  RH  008%=      5-min Rain = 0
KPG1 102137Z 26014KT 31/M08 A2983 RMK A01 T03081082  RH  007%=      5-min Rain = 0
KPG1 102138Z 24013KT 31/M08 A2983 RMK A01 T03081082  RH  007%=      5-min Rain = 0
KPG1 102139Z 25016G21KT 31/M08 A2983 RMK A01 T03101081  RH  007%=      5-min Rain = 0
KPG1 102140Z 26014KT 31/M09 A2983 RMK A01 T03111085  RH  007%=      5-min Rain = 0
KPG1 102141Z 25012KT 31/M08 A2983 RMK A01 T03091084  RH  007%=      5-min Rain = 0
KPG1 102142Z 24016KT 31/M09 A2982 RMK A01 T03081085  RH  007%=      5-min Rain = 0
KPG1 102143Z 26016G21KT 31/M09 A2982 RMK A01 T03081087  RH  007%=      5-min Rain = 0
KPG1 102144Z 26017KT 31/M09 A2983 RMK A01 T03081087  RH  007%=      5-min Rain = 0
KPG1 102145Z 25017KT 31/M09 A2983 RMK A01 T03071089  RH  007%=      5-min Rain = 0
KPG1 102146Z 26016KT 31/M09 A2983 RMK A01 T03071091  RH  007%=      5-min Rain = 0
KPG1 102147Z 26010G18KT 31/M09 A2983 RMK A01 T03071091  RH  007%=      5-min Rain = 0
KPG1 102148Z 24009KT 31/M09 A2983 RMK A01 T03061091  RH  007%=      5-min Rain = 0
KPG1 102149Z 26013KT 31/M09 A2983 RMK A01 T03061089  RH  007%=      5-min Rain = 0
KPG1 102150Z 25010KT 31/M09 A2983 RMK A01 T03091086  RH  007%=      5-min Rain = 0
KPG1 102151Z 25011KT 31/M09 A2983 RMK A01 T03111086  RH  007%=      5-min Rain = 0
KPG1 102152Z 23011G16KT 31/M09 A2982 RMK A01 T03101087  RH  007%=      5-min Rain = 0
KPG1 102153Z 23012G20KT 31/M09 A2982 RMK A01 T03101087  RH  007%=      5-min Rain = 0
KPG1 102154Z 23011KT 31/M09 A2982 RMK A01 T03081086  RH  007%=      5-min Rain = 0
KPG1 102155Z 25013KT 31/M09 A2982 RMK A01 T03071087  RH  007%=      5-min Rain = 0
KPG1 102156Z 25015KT 31/M09 A2982 RMK A01 T03081087  RH  007%=      5-min Rain = 0
KPG1 102157Z 26013KT 31/M09 A2982 RMK A01 T03081087  RH  007%=      5-min Rain = 0
KPG1 102158Z 25011G16KT 31/M09 A2982 RMK A01 T03081089  RH  007%=      5-min Rain = 0
KPG1 102159Z 23010KT 31/M09 A2982 RMK A01 T03051090  RH  007%=      5-min Rain = 0
KPG1 102200Z 25013KT 31/M09 A2982 RMK A01 T03071087  RH  007%=      5-min Rain = 0
KPG1 102201Z 26015G22KT 31/M09 A2982 RMK A01 T03111087  RH  007%=      5-min Rain = 0
KPG1 102202Z 28013G19KT 31/M09 A2982 RMK A01 T03121089  RH  007%=      5-min Rain = 0
KPG1 102203Z 28013KT 31/M09 A2982 RMK A01 T03101089  RH  007%=      5-min Rain = 0
KPG1 102204Z 27013KT 31/M09 A2982 RMK A01 T03071090  RH  007%=      5-min Rain = 0
KPG1 102205Z 26017G24KT 31/M09 A2982 RMK A01 T03071090  RH  007%=      5-min Rain = 0
KPG1 102206Z 26020G25KT 31/M09 A2982 RMK A01 T03081089  RH  007%=      5-min Rain = 0
KPG1 102207Z 26018G23KT 31/M09 A2982 RMK A01 T03091089  RH  007%=      5-min Rain = 0
KPG1 102208Z 25015KT 31/M09 A2982 RMK A01 T03061091  RH  007%=      5-min Rain = 0
KPG1 102209Z 25015G21KT 31/M09 A2982 RMK A01 T03051090  RH  007%=      5-min Rain = 0
KPG1 102210Z 25018KT 30/M09 A2982 RMK A01 T03041092  RH  007%=      5-min Rain = 0
KPG1 102211Z 24017G22KT 30/M09 A2982 RMK A01 T03031092  RH  007%=      5-min Rain = 0
KPG1 102212Z 24012KT 30/M09 A2982 RMK A01 T03021093  RH  007%=      5-min Rain = 0
KPG1 102213Z 24012KT 30/M09 A2982 RMK A01 T03011093  RH  007%=      5-min Rain = 0
KPG1 102214Z 25011KT 30/M09 A2982 RMK A01 T03001093  RH  007%=      5-min Rain = 0
KPG1 102215Z 25013KT 30/M09 A2982 RMK A01 T03001093  RH  007%=      5-min Rain = 0
KPG1 102216Z 25014G20KT 30/M09 A2982 RMK A01 T03011094  RH  007%=      5-min Rain = 0
KPG1 102217Z 25015KT 30/M10 A2982 RMK A01 T03011095  RH  007%=      5-min Rain = 0
KPG1 102218Z 24014KT 30/M10 A2982 RMK A01 T02991097  RH  007%=      5-min Rain = 0
KPG1 102219Z 24013KT 30/M09 A2982 RMK A01 T02991094  RH  007%=      5-min Rain = 0
KPG1 102220Z 25017KT 30/M09 A2982 RMK A01 T02981093  RH  007%=      5-min Rain = 0
KPG1 102221Z 26014KT 30/M09 A2982 RMK A01 T02981094  RH  007%=      5-min Rain = 0
KPG1 102222Z 27011KT 30/M10 A2982 RMK A01 T02981095  RH  007%=      5-min Rain = 0
KPG1 102223Z 27010KT 30/M10 A2982 RMK A01 T02971097  RH  007%=      5-min Rain = 0
KPG1 102224Z 26015KT 30/M10 A2982 RMK A01 T02971095  RH  007%=      5-min Rain = 0
KPG1 102225Z 26016KT 30/M10 A2981 RMK A01 T02971096  RH  007%=      5-min Rain = 0
KPG1 102226Z 27017KT 30/M10 A2982 RMK A01 T02971095  RH  007%=      5-min Rain = 0
KPG1 102227Z 26013G18KT 30/M09 A2982 RMK A01 T02961094  RH  007%=      5-min Rain = 0
KPG1 102228Z 26017KT 30/M09 A2982 RMK A01 T02961094  RH  007%=      5-min Rain = 0
KPG1 102229Z 26014G19KT 30/M10 A2982 RMK A01 T02961095  RH  007%=      5-min Rain = 0
KPG1 102230Z 25009KT 30/M09 A2982 RMK A01 T02951094  RH  007%=      5-min Rain = 0
KPG1 102231Z 26012KT 30/M09 A2982 RMK A01 T02971093  RH  007%=      5-min Rain = 0
KPG1 102232Z 25012KT 30/M09 A2982 RMK A01 T02981094  RH  007%=      5-min Rain = 0
KPG1 102233Z 25013KT 30/M09 A2981 RMK A01 T02971094  RH  007%=      5-min Rain = 0
KPG1 102234Z 25012G17KT 30/M10 A2981 RMK A01 T02971095  RH  007%=      5-min Rain = 0
KPG1 102235Z 25013KT 30/M10 A2981 RMK A01 T02991095  RH  007%=      5-min Rain = 0
KPG1 102236Z 26015KT 30/M09 A2981 RMK A01 T03001094  RH  007%=      5-min Rain = 0
KPG1 102237Z 27016KT 30/M09 A2981 RMK A01 T03011094  RH  007%=      5-min Rain = 0
KPG1 102238Z 28017KT 30/M10 A2981 RMK A01 T02981096  RH  007%=      5-min Rain = 0
KPG1 102239Z 26015KT 30/M10 A2981 RMK A01 T02961096  RH  007%=      5-min Rain = 0
KPG1 102240Z 26016KT 30/M10 A2981 RMK A01 T02951097  RH  007%=      5-min Rain = 0
KPG1 102241Z 25009KT 29/M10 A2981 RMK A01 T02941097  RH  007%=      5-min Rain = 0
KPG1 102242Z 25014KT 30/M10 A2981 RMK A01 T02951096  RH  007%=      5-min Rain = 0
KPG1 102243Z 25014KT 30/M10 A2981 RMK A01 T02961097  RH  007%=      5-min Rain = 0
KPG1 102244Z 25011KT 30/M10 A2981 RMK A01 T02951098  RH  007%=      5-min Rain = 0
KPG1 102245Z 24006KT 30/M10 A2981 RMK A01 T02961098  RH  007%=      5-min Rain = 0
KPG1 102246Z 24006KT 30/M10 A2981 RMK A01 T02961097  RH  007%=      5-min Rain = 0
KPG1 102247Z 24009KT 30/M10 A2981 RMK A01 T02971098  RH  007%=      5-min Rain = 0
KPG1 102248Z 25010KT 30/M10 A2982 RMK A01 T02981097  RH  007%=      5-min Rain = 0
KPG1 102249Z 25011G16KT 30/M09 A2982 RMK A01 T03001094  RH  007%=      5-min Rain = 0
KPG1 102250Z 25013G18KT 30/M09 A2981 RMK A01 T03011094  RH  007%=      5-min Rain = 0
KPG1 102251Z 25017KT 30/M10 A2981 RMK A01 T03021097  RH  007%=      5-min Rain = 0
KPG1 102252Z 25017KT 30/M10 A2981 RMK A01 T03011098  RH  007%=      5-min Rain = 0
KPG1 102253Z 25013KT 30/M10 A2981 RMK A01 T03011098  RH  007%=      5-min Rain = 0
KPG1 102254Z 24014G19KT 30/M10 A2981 RMK A01 T03021096  RH  007%=      5-min Rain = 0
KPG1 102255Z 24017KT 30/M10 A2981 RMK A01 T03031097  RH  007%=      5-min Rain = 0
KPG1 102256Z 25015KT 30/M10 A2981 RMK A01 T03031100  RH  007%=      5-min Rain = 0
KPG1 102257Z 26010KT 30/M10 A2981 RMK A01 T03041099  RH  007%=      5-min Rain = 0
KPG1 102258Z 27009KT 30/M10 A2981 RMK A01 T03031100  RH  007%=      5-min Rain = 0
KPG1 102259Z 26016G24KT 30/M10 A2981 RMK A01 T03011100  RH  007%=      5-min Rain = 0
KPG1 102300Z 25017KT 30/M10 A2981 RMK A01 T03001100  RH  007%=      5-min Rain = 0
KPG1 102301Z 26018KT 30/M10 A2982 RMK A01 T02981100  RH  007%=      5-min Rain = 0
KPG1 102302Z 25013G18KT 30/M10 A2981 RMK A01 T02971101  RH  007%=      5-min Rain = 0
KPG1 102303Z 26013G18KT 30/M10 A2982 RMK A01 T02961101  RH  007%=      5-min Rain = 0
KPG1 102304Z 27015G20KT 30/M10 A2982 RMK A01 T02961100  RH  007%=      5-min Rain = 0
KPG1 102305Z 26013KT 30/M10 A2982 RMK A01 T02951100  RH  007%=      5-min Rain = 0
KPG1 102306Z 26009KT 30/M10 A2982 RMK A01 T02951101  RH  007%=      5-min Rain = 0
KPG1 102307Z 25010KT 29/M10 A2982 RMK A01 T02941102  RH  007%=      5-min Rain = 0
KPG1 102308Z 27013KT 29/M10 A2981 RMK A01 T02941102  RH  007%=      5-min Rain = 0
KPG1 102309Z 25014KT 29/M10 A2982 RMK A01 T02941101  RH  007%=      5-min Rain = 0
KPG1 102310Z 25013KT 29/M10 A2982 RMK A01 T02931101  RH  007%=      5-min Rain = 0
KPG1 102311Z 25014KT 29/M10 A2982 RMK A01 T02921102  RH  007%=      5-min Rain = 0
KPG1 102312Z 26013KT 29/M10 A2982 RMK A01 T02921102  RH  007%=      5-min Rain = 0
KPG1 102313Z 25014KT 29/M10 A2982 RMK A01 T02921102  RH  007%=      5-min Rain = 0
KPG1 102314Z 26013KT 29/M10 A2982 RMK A01 T02911101  RH  007%=      5-min Rain = 0
KPG1 102315Z 25011G16KT 29/M10 A2982 RMK A01 T02901101  RH  007%=      5-min Rain = 0
KPG1 102316Z 24013KT 29/M10 A2982 RMK A01 T02911100  RH  007%=      5-min Rain = 0
KPG1 102317Z 25012KT 29/M10 A2982 RMK A01 T02911100  RH  007%=      5-min Rain = 0
KPG1 102318Z 25011KT 29/M10 A2982 RMK A01 T02901101  RH  007%=      5-min Rain = 0
KPG1 102319Z 25012KT 29/M10 A2982 RMK A01 T02901101  RH  007%=      5-min Rain = 0
KPG1 102320Z 24009KT 29/M10 A2982 RMK A01 T02901099  RH  007%=      5-min Rain = 0
KPG1 102321Z 25011KT 29/M10 A2982 RMK A01 T02901099  RH  007%=      5-min Rain = 0
KPG1 102322Z 25012KT 29/M10 A2982 RMK A01 T02901098  RH  007%=      5-min Rain = 0
KPG1 102323Z 23009G14KT 29/M10 A2982 RMK A01 T02901099  RH  007%=      5-min Rain = 0
KPG1 102324Z 24012KT 29/M10 A2982 RMK A01 T02901099  RH  007%=      5-min Rain = 0
KPG1 102325Z 24013KT 29/M10 A2982 RMK A01 T02901099  RH  007%=      5-min Rain = 0
KPG1 102326Z 24011KT 29/M10 A2982 RMK A01 T02901098  RH  007%=      5-min Rain = 0
KPG1 102327Z 24010KT 29/M10 A2982 RMK A01 T02901098  RH  007%=      5-min Rain = 0
KPG1 102328Z 24007KT 29/M10 A2982 RMK A01 T02901099  RH  007%=      5-min Rain = 0
KPG1 102329Z 24009KT 29/M10 A2982 RMK A01 T02901098  RH  007%=      5-min Rain = 0
KPG1 102330Z 25009KT 29/M10 A2982 RMK A01 T02901098  RH  007%=      5-min Rain = 0
KPG1 102331Z 24009KT 29/M10 A2982 RMK A01 T02901098  RH  007%=      5-min Rain = 0
KPG1 102332Z 24007KT 29/M10 A2982 RMK A01 T02901098  RH  007%=      5-min Rain = 0
KPG1 102333Z 24010KT 29/M10 A2982 RMK A01 T02901098  RH  007%=      5-min Rain = 0
KPG1 102334Z 23008KT 29/M10 A2982 RMK A01 T02891097  RH  007%=      5-min Rain = 0
KPG1 102335Z 24007KT 29/M10 A2982 RMK A01 T02901096  RH  007%=      5-min Rain = 0
KPG1 102336Z 23006KT 29/M10 A2982 RMK A01 T02901096  RH  007%=      5-min Rain = 0
KPG1 102337Z 23007KT 29/M09 A2982 RMK A01 T02901094  RH  007%=      5-min Rain = 0
KPG1 102338Z 24010KT 29/M10 A2982 RMK A01 T02891096  RH  007%=      5-min Rain = 0
KPG1 102339Z 25008KT 29/M10 A2982 RMK A01 T02891096  RH  007%=      5-min Rain = 0
KPG1 102340Z 26009KT 29/M10 A2982 RMK A01 T02891097  RH  007%=      5-min Rain = 0
KPG1 102341Z 26008KT 29/M10 A2982 RMK A01 T02891098  RH  007%=      5-min Rain = 0
KPG1 102342Z 26009G15KT 29/M10 A2982 RMK A01 T02891098  RH  007%=      5-min Rain = 0
KPG1 102343Z 26012KT 29/M10 A2982 RMK A01 T02891096  RH  007%=      5-min Rain = 0
KPG1 102344Z 26014KT 29/M10 A2982 RMK A01 T02891096  RH  007%=      5-min Rain = 0
KPG1 102345Z 26013KT 29/M10 A2982 RMK A01 T02881097  RH  007%=      5-min Rain = 0
KPG1 102346Z 26012KT 29/M10 A2982 RMK A01 T02881096  RH  007%=      5-min Rain = 0
KPG1 102347Z 26014KT 29/M10 A2982 RMK A01 T02881097  RH  007%=      5-min Rain = 0
KPG1 102348Z 26013KT 29/M10 A2982 RMK A01 T02881097  RH  007%=      5-min Rain = 0
KPG1 102349Z 27013KT 29/M10 A2982 RMK A01 T02881099  RH  007%=      5-min Rain = 0
KPG1 102350Z 26014KT 29/M10 A2982 RMK A01 T02881102  RH  007%=      5-min Rain = 0
KPG1 102351Z 27011KT 29/M10 A2982 RMK A01 T02881102  RH  007%=      5-min Rain = 0
KPG1 102352Z 27008KT 29/M10 A2983 RMK A01 T02881102  RH  007%=      5-min Rain = 0
KPG1 102353Z 26008KT 29/M10 A2983 RMK A01 T02881103  RH  007%=      5-min Rain = 0
KPG1 102354Z 26009KT 29/M10 A2983 RMK A01 T02881103  RH  007%=      5-min Rain = 0
KPG1 102355Z 24007KT 29/M10 A2983 RMK A01 T02891101  RH  007%=      5-min Rain = 0
KPG1 102356Z 25015KT 29/M10 A2983 RMK A01 T02891101  RH  007%=      5-min Rain = 0
KPG1 102357Z 26016KT 29/M10 A2982 RMK A01 T02891101  RH  007%=      5-min Rain = 0
KPG1 102358Z 24013KT 29/M10 A2982 RMK A01 T02891097  RH  007%=      5-min Rain = 0
KPG1 102359Z 24013KT 29/M09 A2982 RMK A01 T02881093  RH  008%=      5-min Rain = 0
KPG1 110000Z 24011KT 29/M09 A2983 RMK A01 T02881091  RH  008%=      5-min Rain = 0
KPG1 110001Z 23009KT 29/M09 A2983 RMK A01 T02881089  RH  008%=      5-min Rain = 0
KPG1 110002Z 23012KT 29/M09 A2982 RMK A01 T02881089  RH  008%=      5-min Rain = 0
KPG1 110003Z 23011KT 29/M09 A2982 RMK A01 T02881091  RH  008%=      5-min Rain = 0
KPG1 110004Z 24011KT 29/M09 A2983 RMK A01 T02891094  RH  008%=      5-min Rain = 0
KPG1 110005Z 24009KT 29/M10 A2983 RMK A01 T02901097  RH  007%=      5-min Rain = 0
KPG1 110006Z 26006KT 29/M10 A2983 RMK A01 T02911097  RH  007%=      5-min Rain = 0
KPG1 110007Z 26009KT 29/M10 A2983 RMK A01 T02921097  RH  007%=      5-min Rain = 0
KPG1 110008Z 26009KT 29/M10 A2983 RMK A01 T02921101  RH  007%=      5-min Rain = 0
KPG1 110009Z 26009KT 29/M10 A2983 RMK A01 T02911103  RH  007%=      5-min Rain = 0
KPG1 110010Z 26010KT 29/M10 A2983 RMK A01 T02921104  RH  007%=      5-min Rain = 0
KPG1 110011Z 26010G15KT 29/M10 A2983 RMK A01 T02931104  RH  007%=      5-min Rain = 0
KPG1 110012Z 26011KT 29/M10 A2983 RMK A01 T02931104  RH  007%=      5-min Rain = 0
KPG1 110013Z 26006KT 29/M10 A2983 RMK A01 T02941104  RH  007%=      5-min Rain = 0
KPG1 110014Z 26008KT 30/M10 A2983 RMK A01 T02951102  RH  007%=      5-min Rain = 0
KPG1 110015Z 25011KT 30/M10 A2983 RMK A01 T02951103  RH  007%=      5-min Rain = 0
KPG1 110016Z 25009KT 30/M10 A2983 RMK A01 T02961102  RH  007%=      5-min Rain = 0
KPG1 110017Z 25008KT 30/M10 A2983 RMK A01 T02951102  RH  007%=      5-min Rain = 0
KPG1 110018Z 25010KT 30/M10 A2983 RMK A01 T02951102  RH  007%=      5-min Rain = 0
KPG1 110019Z 25010KT 29/M10 A2983 RMK A01 T02941104  RH  007%=      5-min Rain = 0
KPG1 110020Z 25008KT 29/M10 A2983 RMK A01 T02941103  RH  007%=      5-min Rain = 0
KPG1 110021Z 25008G13KT 29/M10 A2983 RMK A01 T02941102  RH  007%=      5-min Rain = 0
KPG1 110022Z 25010KT 29/M10 A2983 RMK A01 T02941101  RH  007%=      5-min Rain = 0
KPG1 110023Z 25010KT 29/M10 A2983 RMK A01 T02941102  RH  007%=      5-min Rain = 0
KPG1 110024Z 26011KT 29/M10 A2983 RMK A01 T02931100  RH  007%=      5-min Rain = 0
KPG1 110025Z 26014KT 29/M10 A2983 RMK A01 T02931100  RH  007%=      5-min Rain = 0
KPG1 110026Z 26015KT 29/M10 A2983 RMK A01 T02921100  RH  007%=      5-min Rain = 0
KPG1 110027Z 26012KT 29/M10 A2983 RMK A01 T02921099  RH  007%=      5-min Rain = 0
KPG1 110028Z 24006KT 29/M10 A2983 RMK A01 T02931098  RH  007%=      5-min Rain = 0
KPG1 110029Z 24009KT 29/M10 A2983 RMK A01 T02931097  RH  007%=      5-min Rain = 0
KPG1 110030Z 25008KT 29/M10 A2983 RMK A01 T02941098  RH  007%=      5-min Rain = 0
KPG1 110031Z 25006KT 29/M10 A2983 RMK A01 T02941098  RH  007%=      5-min Rain = 0
KPG1 110032Z 27005KT 29/M10 A2983 RMK A01 T02941099  RH  007%=      5-min Rain = 0
KPG1 110033Z 25003KT 29/M10 A2983 RMK A01 T02941099  RH  007%=      5-min Rain = 0
KPG1 110034Z 25008KT 30/M10 A2983 RMK A01 T02951100  RH  007%=      5-min Rain = 0
KPG1 110035Z 26007KT 30/M10 A2983 RMK A01 T02951102  RH  007%=      5-min Rain = 0
KPG1 110036Z 26011G16KT 29/M10 A2983 RMK A01 T02941103  RH  007%=      5-min Rain = 0
KPG1 110037Z 26009KT 29/M10 A2983 RMK A01 T02931103  RH  007%=      5-min Rain = 0
KPG1 110038Z 26012KT 29/M10 A2983 RMK A01 T02921104  RH  007%=      5-min Rain = 0
KPG1 110039Z 27010KT 29/M11 A2983 RMK A01 T02921105  RH  007%=      5-min Rain = 0
KPG1 110040Z 27008G13KT 29/M10 A2983 RMK A01 T02921103  RH  007%=      5-min Rain = 0
KPG1 110041Z 28012G17KT 29/M10 A2983 RMK A01 T02911103  RH  007%=      5-min Rain = 0
KPG1 110042Z 28011KT 29/M10 A2983 RMK A01 T02911103  RH  007%=      5-min Rain = 0
KPG1 110043Z 27011KT 29/M10 A2983 RMK A01 T02901103  RH  007%=      5-min Rain = 0
KPG1 110044Z 26010KT 29/M10 A2983 RMK A01 T02901103  RH  007%=      5-min Rain = 0
KPG1 110045Z 26011KT 29/M10 A2983 RMK A01 T02891104  RH  007%=      5-min Rain = 0
KPG1 110046Z 26011KT 29/M11 A2983 RMK A01 T02891105  RH  007%=      5-min Rain = 0
KPG1 110047Z 26009KT 29/M10 A2983 RMK A01 T02881104  RH  007%=      5-min Rain = 0
KPG1 110048Z 26011KT 29/M10 A2983 RMK A01 T02881104  RH  007%=      5-min Rain = 0
KPG1 110049Z 26011KT 29/M10 A2983 RMK A01 T02881103  RH  007%=      5-min Rain = 0
KPG1 110050Z 27009KT 29/M10 A2983 RMK A01 T02871103  RH  007%=      5-min Rain = 0
KPG1 110051Z 27009KT 29/M10 A2984 RMK A01 T02871103  RH  007%=      5-min Rain = 0
KPG1 110052Z 26010KT 29/M10 A2983 RMK A01 T02861103  RH  007%=      5-min Rain = 0
KPG1 110053Z 27008KT 29/M10 A2984 RMK A01 T02861103  RH  007%=      5-min Rain = 0
KPG1 110054Z 26009KT 29/M10 A2984 RMK A01 T02861104  RH  007%=      5-min Rain = 0
KPG1 110055Z 27009KT 29/M10 A2983 RMK A01 T02861103  RH  007%=      5-min Rain = 0
KPG1 110056Z 27009KT 29/M10 A2983 RMK A01 T02851104  RH  007%=      5-min Rain = 0
KPG1 110057Z 26008KT 29/M10 A2984 RMK A01 T02851103  RH  007%=      5-min Rain = 0
KPG1 110058Z 27007KT 28/M10 A2984 RMK A01 T02841103  RH  007%=      5-min Rain = 0
KPG1 110059Z 27006KT 28/M10 A2984 RMK A01 T02841103  RH  007%=      5-min Rain = 0
KPG1 110100Z 27007KT 28/M10 A2984 RMK A01 T02831103  RH  007%=      5-min Rain = 0
KPG1 110101Z 26006KT 28/M10 A2984 RMK A01 T02831103  RH  007%=      5-min Rain = 0
KPG1 110102Z 26006KT 28/M10 A2984 RMK A01 T02831103  RH  007%=      5-min Rain = 0
KPG1 110103Z 27005KT 28/M10 A2984 RMK A01 T02821103  RH  007%=      5-min Rain = 0
KPG1 110104Z 28005KT 28/M10 A2984 RMK A01 T02811103  RH  007%=      5-min Rain = 0
KPG1 110105Z 28005KT 28/M10 A2984 RMK A01 T02811101  RH  007%=      5-min Rain = 0
KPG1 110106Z 27005KT 28/M10 A2984 RMK A01 T02801102  RH  007%=      5-min Rain = 0
KPG1 110107Z 28005KT 28/M10 A2984 RMK A01 T02791102  RH  007%=      5-min Rain = 0
KPG1 110108Z 29005KT 28/M10 A2984 RMK A01 T02791102  RH  008%=      5-min Rain = 0
KPG1 110109Z 29004KT 28/M10 A2984 RMK A01 T02781102  RH  008%=      5-min Rain = 0
KPG1 110110Z 28004KT 28/M10 A2984 RMK A01 T02781101  RH  008%=      5-min Rain = 0
KPG1 110111Z 29005KT 28/M10 A2984 RMK A01 T02771101  RH  008%=      5-min Rain = 0
KPG1 110112Z 30004KT 28/M10 A2984 RMK A01 T02771102  RH  008%=      5-min Rain = 0
KPG1 110113Z 30004KT 28/M10 A2984 RMK A01 T02771101  RH  008%=      5-min Rain = 0
KPG1 110114Z 28003KT 28/M10 A2984 RMK A01 T02771102  RH  008%=      5-min Rain = 0
KPG1 110115Z 29003KT 28/M10 A2984 RMK A01 T02771102  RH  008%=      5-min Rain = 0
KPG1 110116Z 28004KT 28/M10 A2984 RMK A01 T02761102  RH  008%=      5-min Rain = 0
KPG1 110117Z 28004KT 28/M10 A2984 RMK A01 T02761102  RH  008%=      5-min Rain = 0
KPG1 110118Z 29005KT 28/M10 A2984 RMK A01 T02751101  RH  008%=      5-min Rain = 0
KPG1 110119Z 30005KT 27/M10 A2984 RMK A01 T02741100  RH  008%=      5-min Rain = 0
KPG1 110120Z 29005KT 27/M10 A2984 RMK A01 T02731101  RH  008%=      5-min Rain = 0
KPG1 110121Z 30004KT 27/M10 A2984 RMK A01 T02731101  RH  008%=      5-min Rain = 0
KPG1 110122Z 29003KT 27/M10 A2984 RMK A01 T02731102  RH  008%=      5-min Rain = 0
KPG1 110123Z 29004KT 27/M10 A2984 RMK A01 T02731102  RH  008%=      5-min Rain = 0
KPG1 110124Z 29004KT 27/M10 A2984 RMK A01 T02731101  RH  008%=      5-min Rain = 0
KPG1 110125Z 31003KT 27/M10 A2984 RMK A01 T02721101  RH  008%=      5-min Rain = 0
KPG1 110126Z 31004KT 27/M10 A2984 RMK A01 T02711102  RH  008%=      5-min Rain = 0
KPG1 110127Z 30003KT 27/M10 A2984 RMK A01 T02711102  RH  008%=      5-min Rain = 0
KPG1 110128Z 31004KT 27/M10 A2984 RMK A01 T02701102  RH  008%=      5-min Rain = 0
KPG1 110129Z 31004KT 27/M10 A2985 RMK A01 T02701102  RH  008%=      5-min Rain = 0
KPG1 110130Z 32004KT 27/M10 A2985 RMK A01 T02701102  RH  008%=      5-min Rain = 0
KPG1 110131Z 31004KT 27/M10 A2985 RMK A01 T02701101  RH  008%=      5-min Rain = 0
KPG1 110132Z 31004KT 27/M10 A2985 RMK A01 T02691102  RH  008%=      5-min Rain = 0
KPG1 110133Z 31004KT 27/M10 A2985 RMK A01 T02691102  RH  008%=      5-min Rain = 0
KPG1 110134Z 30004KT 27/M10 A2985 RMK A01 T02691103  RH  008%=      5-min Rain = 0
KPG1 110135Z 31005KT 27/M10 A2985 RMK A01 T02691102  RH  008%=      5-min Rain = 0
KPG1 110136Z 31005KT 27/M10 A2985 RMK A01 T02701102  RH  008%=      5-min Rain = 0
KPG1 110137Z 32005KT 27/M10 A2985 RMK A01 T02701101  RH  008%=      5-min Rain = 0
KPG1 110138Z 31005KT 27/M10 A2985 RMK A01 T02691102  RH  008%=      5-min Rain = 0
KPG1 110139Z 32004KT 27/M10 A2984 RMK A01 T02691102  RH  008%=      5-min Rain = 0
KPG1 110140Z 31005KT 27/M10 A2984 RMK A01 T02691102  RH  008%=      5-min Rain = 0
KPG1 110141Z 31004KT 27/M10 A2984 RMK A01 T02691102  RH  008%=      5-min Rain = 0
KPG1 110142Z 31004KT 27/M10 A2984 RMK A01 T02701102  RH  008%=      5-min Rain = 0
KPG1 110143Z 30005KT 27/M10 A2984 RMK A01 T02691101  RH  008%=      5-min Rain = 0
KPG1 110144Z 29004KT 27/M10 A2984 RMK A01 T02691102  RH  008%=      5-min Rain = 0
KPG1 110145Z 31004KT 27/M10 A2984 RMK A01 T02691101  RH  008%=      5-min Rain = 0
KPG1 110146Z 30005KT 27/M10 A2984 RMK A01 T02681101  RH  008%=      5-min Rain = 0
KPG1 110147Z 30003KT 27/M10 A2984 RMK A01 T02691101  RH  008%=      5-min Rain = 0
KPG1 110148Z 31003KT 27/M10 A2985 RMK A01 T02681101  RH  008%=      5-min Rain = 0
KPG1 110149Z 31003KT 27/M10 A2985 RMK A01 T02681101  RH  008%=      5-min Rain = 0
KPG1 110150Z 31004KT 27/M10 A2985 RMK A01 T02671101  RH  008%=      5-min Rain = 0
KPG1 110151Z 31004KT 27/M10 A2985 RMK A01 T02671100  RH  008%=      5-min Rain = 0
KPG1 110152Z 30004KT 27/M10 A2985 RMK A01 T02671100  RH  008%=      5-min Rain = 0
KPG1 110153Z 31004KT 27/M10 A2985 RMK A01 T02671099  RH  008%=      5-min Rain = 0
KPG1 110154Z 31006KT 27/M10 A2985 RMK A01 T02671100  RH  008%=      5-min Rain = 0
KPG1 110155Z 31006KT 27/M10 A2985 RMK A01 T02671100  RH  008%=      5-min Rain = 0
KPG1 110156Z 31006KT 27/M10 A2985 RMK A01 T02681099  RH  008%=      5-min Rain = 0
KPG1 110157Z 31005KT 27/M10 A2986 RMK A01 T02671100  RH  008%=      5-min Rain = 0
KPG1 110158Z 31005KT 27/M10 A2986 RMK A01 T02671099  RH  008%=      5-min Rain = 0
KPG1 110159Z 31004KT 27/M10 A2986 RMK A01 T02671099  RH  008%=      5-min Rain = 0
KPG1 110200Z 31006KT 27/M10 A2986 RMK A01 T02671099  RH  008%=      5-min Rain = 0
KPG1 110201Z 31006KT 27/M10 A2986 RMK A01 T02671099  RH  008%=      5-min Rain = 0
KPG1 110202Z 32005KT 27/M10 A2986 RMK A01 T02671099  RH  008%=      5-min Rain = 0
KPG1 110203Z 31005KT 27/M10 A2986 RMK A01 T02671100  RH  008%=      5-min Rain = 0
KPG1 110204Z 31006KT 27/M10 A2986 RMK A01 T02671099  RH  008%=      5-min Rain = 0
KPG1 110205Z 32004KT 27/M10 A2986 RMK A01 T02681098  RH  008%=      5-min Rain = 0
KPG1 110206Z 32004KT 27/M10 A2986 RMK A01 T02681099  RH  008%=      5-min Rain = 0
KPG1 110207Z 31005KT 27/M10 A2986 RMK A01 T02681099  RH  008%=      5-min Rain = 0
KPG1 110208Z 33004KT 27/M10 A2986 RMK A01 T02671099  RH  008%=      5-min Rain = 0
KPG1 110209Z 32004KT 27/M10 A2986 RMK A01 T02671098  RH  008%=      5-min Rain = 0
KPG1 110210Z 32004KT 27/M10 A2986 RMK A01 T02661098  RH  008%=      5-min Rain = 0
KPG1 110211Z 31004KT 27/M10 A2986 RMK A01 T02651099  RH  008%=      5-min Rain = 0
KPG1 110212Z 32004KT 27/M10 A2986 RMK A01 T02651098  RH  008%=      5-min Rain = 0
KPG1 110213Z 32005KT 27/M10 A2986 RMK A01 T02651099  RH  008%=      5-min Rain = 0
KPG1 110214Z 32005KT 27/M10 A2986 RMK A01 T02651098  RH  008%=      5-min Rain = 0
KPG1 110215Z 31006KT 26/M10 A2986 RMK A01 T02641098  RH  009%=      5-min Rain = 0
KPG1 110216Z 32006KT 26/M10 A2986 RMK A01 T02631098  RH  008%=      5-min Rain = 0
KPG1 110217Z 32005KT 26/M10 A2986 RMK A01 T02641098  RH  008%=      5-min Rain = 0
KPG1 110218Z 31005KT 26/M10 A2986 RMK A01 T02641098  RH  008%=      5-min Rain = 0
KPG1 110219Z 32006KT 26/M10 A2986 RMK A01 T02631098  RH  009%=      5-min Rain = 0
KPG1 110220Z 32006KT 26/M10 A2986 RMK A01 T02621099  RH  009%=      5-min Rain = 0
KPG1 110221Z 32006KT 26/M10 A2986 RMK A01 T02621098  RH  009%=      5-min Rain = 0
KPG1 110222Z 31006KT 26/M10 A2986 RMK A01 T02621098  RH  009%=      5-min Rain = 0
KPG1 110223Z 32006KT 26/M10 A2987 RMK A01 T02631098  RH  009%=      5-min Rain = 0
KPG1 110224Z 31007KT 26/M10 A2987 RMK A01 T02631098  RH  008%=      5-min Rain = 0
KPG1 110225Z 31006KT 26/M10 A2987 RMK A01 T02641098  RH  008%=      5-min Rain = 0
KPG1 110226Z 31007KT 26/M10 A2987 RMK A01 T02641098  RH  008%=      5-min Rain = 0
KPG1 110227Z 32006KT 26/M10 A2987 RMK A01 T02641097  RH  009%=      5-min Rain = 0
KPG1 110228Z 32006KT 26/M10 A2987 RMK A01 T02641097  RH  009%=      5-min Rain = 0
KPG1 110229Z 32007KT 26/M10 A2987 RMK A01 T02631097  RH  009%=      5-min Rain = 0
KPG1 110230Z 32006KT 26/M10 A2987 RMK A01 T02631097  RH  009%=      5-min Rain = 0
KPG1 110231Z 32006KT 26/M10 A2987 RMK A01 T02641097  RH  009%=      5-min Rain = 0
KPG1 110232Z 32006KT 26/M10 A2987 RMK A01 T02641097  RH  009%=      5-min Rain = 0
KPG1 110233Z 32006KT 26/M10 A2987 RMK A01 T02641096  RH  009%=      5-min Rain = 0
KPG1 110234Z 32006KT 26/M10 A2987 RMK A01 T02641097  RH  009%=      5-min Rain = 0
KPG1 110235Z 33006KT 26/M10 A2987 RMK A01 T02641097  RH  009%=      5-min Rain = 0
KPG1 110236Z 32006KT 26/M10 A2987 RMK A01 T02631097  RH  009%=      5-min Rain = 0
KPG1 110237Z 32007KT 26/M10 A2987 RMK A01 T02631097  RH  009%=      5-min Rain = 0
KPG1 110238Z 32007KT 26/M10 A2987 RMK A01 T02631097  RH  009%=      5-min Rain = 0
KPG1 110239Z 32007KT 26/M10 A2987 RMK A01 T02631097  RH  009%=      5-min Rain = 0
KPG1 110240Z 32007KT 26/M10 A2987 RMK A01 T02631097  RH  009%=      5-min Rain = 0
KPG1 110241Z 32007KT 26/M10 A2987 RMK A01 T02631097  RH  009%=      5-min Rain = 0
KPG1 110242Z 32007KT 26/M10 A2987 RMK A01 T02641096  RH  009%=      5-min Rain = 0
KPG1 110243Z 32007KT 26/M10 A2988 RMK A01 T02631097  RH  009%=      5-min Rain = 0
KPG1 110244Z 32006KT 26/M10 A2988 RMK A01 T02631097  RH  009%=      5-min Rain = 0
KPG1 110245Z 31006KT 26/M10 A2988 RMK A01 T02631098  RH  009%=      5-min Rain = 0
KPG1 110246Z 32006KT 26/M10 A2988 RMK A01 T02631098  RH  009%=      5-min Rain = 0
KPG1 110247Z 33005KT 26/M10 A2988 RMK A01 T02621098  RH  009%=      5-min Rain = 0
KPG1 110248Z 32005KT 26/M10 A2988 RMK A01 T02611098  RH  009%=      5-min Rain = 0
KPG1 110249Z 32005KT 26/M10 A2988 RMK A01 T02621098  RH  009%=      5-min Rain = 0
KPG1 110250Z 32005KT 26/M10 A2988 RMK A01 T02631098  RH  009%=      5-min Rain = 0
KPG1 110251Z 32006KT 27/M10 A2988 RMK A01 T02651099  RH  008%=      5-min Rain = 0
KPG1 110252Z 32006KT 27/M10 A2988 RMK A01 T02661099  RH  008%=      5-min Rain = 0
KPG1 110253Z 32006KT 27/M10 A2988 RMK A01 T02671100  RH  008%=      5-min Rain = 0
KPG1 110254Z 32005KT 27/M10 A2988 RMK A01 T02671101  RH  008%=      5-min Rain = 0
KPG1 110255Z 33005KT 27/M10 A2988 RMK A01 T02671102  RH  008%=      5-min Rain = 0
KPG1 110256Z 33006KT 27/M10 A2988 RMK A01 T02671104  RH  008%=      5-min Rain = 0
KPG1 110257Z 33006KT 27/M11 A2988 RMK A01 T02681105  RH  008%=      5-min Rain = 0
KPG1 110258Z 32007KT 27/M11 A2988 RMK A01 T02691105  RH  008%=      5-min Rain = 0
KPG1 110259Z 32007KT 27/M10 A2988 RMK A01 T02691104  RH  008%=      5-min Rain = 0
KPG1 110300Z 32007KT 27/M11 A2988 RMK A01 T02691106  RH  008%=      5-min Rain = 0
KPG1 110301Z 32006KT 27/M11 A2988 RMK A01 T02691105  RH  008%=      5-min Rain = 0
KPG1 110302Z 33006KT 27/M11 A2988 RMK A01 T02691106  RH  008%=      5-min Rain = 0
KPG1 110303Z 33006KT 27/M11 A2988 RMK A01 T02681107  RH  008%=      5-min Rain = 0
KPG1 110304Z 33006KT 27/M11 A2988 RMK A01 T02681108  RH  008%=      5-min Rain = 0
KPG1 110305Z 32005KT 27/M11 A2988 RMK A01 T02691107  RH  008%=      5-min Rain = 0
KPG1 110306Z 32006KT 27/M11 A2988 RMK A01 T02691108  RH  008%=      5-min Rain = 0
KPG1 110307Z 32007KT 27/M11 A2988 RMK A01 T02691109  RH  008%=      5-min Rain = 0
KPG1 110308Z 33007KT 27/M11 A2988 RMK A01 T02691109  RH  008%=      5-min Rain = 0
KPG1 110309Z 32007KT 27/M11 A2988 RMK A01 T02691109  RH  008%=      5-min Rain = 0
KPG1 110310Z 33008KT 27/M11 A2988 RMK A01 T02691110  RH  008%=      5-min Rain = 0
KPG1 110311Z 33008KT 27/M11 A2988 RMK A01 T02701108  RH  008%=      5-min Rain = 0
KPG1 110312Z 33008KT 27/M11 A2988 RMK A01 T02691109  RH  008%=      5-min Rain = 0
KPG1 110313Z 33008KT 27/M11 A2988 RMK A01 T02701109  RH  008%=      5-min Rain = 0
KPG1 110314Z 33009KT 27/M11 A2988 RMK A01 T02701108  RH  008%=      5-min Rain = 0
KPG1 110315Z 33008KT 27/M11 A2988 RMK A01 T02691109  RH  008%=      5-min Rain = 0
KPG1 110316Z 33007KT 27/M11 A2988 RMK A01 T02691109  RH  008%=      5-min Rain = 0
KPG1 110317Z 33007KT 27/M11 A2988 RMK A01 T02691108  RH  008%=      5-min Rain = 0
KPG1 110318Z 33008KT 27/M11 A2988 RMK A01 T02681108  RH  008%=      5-min Rain = 0
KPG1 110319Z 33008KT 27/M11 A2989 RMK A01 T02681108  RH  008%=      5-min Rain = 0
KPG1 110320Z 33008KT 27/M11 A2989 RMK A01 T02681108  RH  008%=      5-min Rain = 0
KPG1 110321Z 33008KT 27/M11 A2989 RMK A01 T02681107  RH  008%=      5-min Rain = 0
KPG1 110322Z 32007KT 27/M11 A2989 RMK A01 T02681108  RH  008%=      5-min Rain = 0
KPG1 110323Z 33007KT 27/M11 A2989 RMK A01 T02691108  RH  008%=      5-min Rain = 0
KPG1 110324Z 33007KT 27/M11 A2989 RMK A01 T02691109  RH  008%=      5-min Rain = 0
KPG1 110325Z 33006KT 27/M11 A2989 RMK A01 T02691109  RH  008%=      5-min Rain = 0
KPG1 110326Z 32006KT 27/M11 A2989 RMK A01 T02691109  RH  008%=      5-min Rain = 0
KPG1 110327Z 32007KT 27/M11 A2989 RMK A01 T02691109  RH  008%=      5-min Rain = 0
KPG1 110328Z 31007KT 27/M11 A2989 RMK A01 T02691109  RH  008%=      5-min Rain = 0
KPG1 110329Z 32010KT 27/M11 A2989 RMK A01 T02691111  RH  007%=      5-min Rain = 0
KPG1 110330Z 32008KT 27/M11 A2989 RMK A01 T02701111  RH  007%=      5-min Rain = 0
KPG1 110331Z 31008KT 27/M11 A2989 RMK A01 T02701112  RH  007%=      5-min Rain = 0
KPG1 110332Z 33007KT 27/M11 A2989 RMK A01 T02691112  RH  007%=      5-min Rain = 0
KPG1 110333Z 31009KT 27/M11 A2989 RMK A01 T02691112  RH  007%=      5-min Rain = 0
KPG1 110334Z 31008KT 27/M11 A2989 RMK A01 T02691113  RH  007%=      5-min Rain = 0
KPG1 110335Z 32008KT 27/M11 A2989 RMK A01 T02691113  RH  007%=      5-min Rain = 0
KPG1 110336Z 31007KT 27/M11 A2989 RMK A01 T02691113  RH  007%=      5-min Rain = 0
KPG1 110337Z 32007KT 27/M11 A2989 RMK A01 T02681114  RH  007%=      5-min Rain = 0
KPG1 110338Z 32007KT 27/M12 A2989 RMK A01 T02681115  RH  007%=      5-min Rain = 0
KPG1 110339Z 32006KT 27/M11 A299 RMK A01 T02671114  RH  007%=      5-min Rain = 0
KPG1 110340Z 32006KT 27/M11 A299 RMK A01 T02671114  RH  007%=      5-min Rain = 0
KPG1 110341Z 32007KT 27/M11 A299 RMK A01 T02671113  RH  007%=      5-min Rain = 0
KPG1 110342Z 33005KT 27/M11 A299 RMK A01 T02671114  RH  007%=      5-min Rain = 0
KPG1 110343Z 32005KT 27/M11 A299 RMK A01 T02671114  RH  007%=      5-min Rain = 0
KPG1 110344Z 33006KT 27/M11 A299 RMK A01 T02661114  RH  007%=      5-min Rain = 0
KPG1 110345Z 32006KT 27/M11 A299 RMK A01 T02661112  RH  008%=      5-min Rain = 0
KPG1 110346Z 32006KT 27/M11 A299 RMK A01 T02651112  RH  008%=      5-min Rain = 0
KPG1 110347Z 32006KT 27/M11 A299 RMK A01 T02651113  RH  008%=      5-min Rain = 0
KPG1 110348Z 32006KT 27/M11 A299 RMK A01 T02651111  RH  008%=      5-min Rain = 0
KPG1 110349Z 33005KT 26/M11 A299 RMK A01 T02641111  RH  008%=      5-min Rain = 0
KPG1 110350Z 32006KT 26/M11 A299 RMK A01 T02631111  RH  008%=      5-min Rain = 0
KPG1 110351Z 32005KT 26/M11 A299 RMK A01 T02631111  RH  008%=      5-min Rain = 0
KPG1 110352Z 32005KT 26/M11 A299 RMK A01 T02631110  RH  008%=      5-min Rain = 0
KPG1 110353Z 32006KT 26/M11 A299 RMK A01 T02631110  RH  008%=      5-min Rain = 0
KPG1 110354Z 32005KT 26/M11 A299 RMK A01 T02631110  RH  008%=      5-min Rain = 0
KPG1 110355Z 32005KT 26/M11 A299 RMK A01 T02631109  RH  008%=      5-min Rain = 0
KPG1 110356Z 33006KT 26/M11 A299 RMK A01 T02631109  RH  008%=      5-min Rain = 0
KPG1 110357Z 32006KT 26/M11 A299 RMK A01 T02631107  RH  008%=      5-min Rain = 0
KPG1 110358Z 33005KT 26/M11 A299 RMK A01 T02631107  RH  008%=      5-min Rain = 0
KPG1 110359Z 32005KT 26/M11 A299 RMK A01 T02631106  RH  008%=      5-min Rain = 0
KPG1 110400Z 32006KT 26/M11 A299 RMK A01 T02631107  RH  008%=      5-min Rain = 0
KPG1 110401Z 32006KT 26/M11 A299 RMK A01 T02631106  RH  008%=      5-min Rain = 0
KPG1 110402Z 32006KT 26/M11 A299 RMK A01 T02631106  RH  008%=      5-min Rain = 0
KPG1 110403Z 32007KT 26/M11 A299 RMK A01 T02621106  RH  008%=      5-min Rain = 0
KPG1 110404Z 32006KT 26/M11 A299 RMK A01 T02611106  RH  008%=      5-min Rain = 0
KPG1 110405Z 32006KT 26/M11 A299 RMK A01 T02621105  RH  008%=      5-min Rain = 0
KPG1 110406Z 32007KT 26/M11 A299 RMK A01 T02611106  RH  008%=      5-min Rain = 0
KPG1 110407Z 32005KT 26/M11 A299 RMK A01 T02611106  RH  008%=      5-min Rain = 0
KPG1 110408Z 32007KT 26/M11 A299 RMK A01 T02611105  RH  008%=      5-min Rain = 0
KPG1 110409Z 33007KT 26/M11 A299 RMK A01 T02621105  RH  008%=      5-min Rain = 0
KPG1 110410Z 32005KT 26/M10 A299 RMK A01 T02631104  RH  008%=      5-min Rain = 0
KPG1 110411Z 32007KT 26/M11 A299 RMK A01 T02631105  RH  008%=      5-min Rain = 0
KPG1 110412Z 32007KT 26/M11 A299 RMK A01 T02631105  RH  008%=      5-min Rain = 0
KPG1 110413Z 32007KT 26/M10 A299 RMK A01 T02621104  RH  008%=      5-min Rain = 0
KPG1 110414Z 32007KT 26/M10 A299 RMK A01 T02631103  RH  008%=      5-min Rain = 0
KPG1 110415Z 32007KT 26/M10 A299 RMK A01 T02631104  RH  008%=      5-min Rain = 0
KPG1 110416Z 31006KT 26/M10 A299 RMK A01 T02621104  RH  008%=      5-min Rain = 0
KPG1 110417Z 32007KT 26/M10 A299 RMK A01 T02611103  RH  008%=      5-min Rain = 0
KPG1 110418Z 32006KT 26/M10 A299 RMK A01 T02611103  RH  008%=      5-min Rain = 0
KPG1 110419Z 31007KT 26/M10 A299 RMK A01 T02611102  RH  008%=      5-min Rain = 0
KPG1 110420Z 31006KT 26/M10 A299 RMK A01 T02601101  RH  008%=      5-min Rain = 0
KPG1 110421Z 31006KT 26/M10 A299 RMK A01 T02601101  RH  008%=      5-min Rain = 0
KPG1 110422Z 31005KT 26/M10 A299 RMK A01 T02601102  RH  008%=      5-min Rain = 0
KPG1 110423Z 31005KT 26/M10 A299 RMK A01 T02601101  RH  008%=      5-min Rain = 0
KPG1 110424Z 31005KT 26/M10 A299 RMK A01 T02601101  RH  008%=      5-min Rain = 0
KPG1 110425Z 30005KT 26/M10 A299 RMK A01 T02601101  RH  008%=      5-min Rain = 0
KPG1 110426Z 31004KT 26/M10 A299 RMK A01 T02601101  RH  009%=      5-min Rain = 0
KPG1 110427Z 28002KT 26/M10 A299 RMK A01 T02581102  RH  009%=      5-min Rain = 0
KPG1 110428Z 19002KT 25/M11 A299 RMK A01 T02511105  RH  009%=      5-min Rain = 0
KPG1 110429Z 17004KT 24/M11 A299 RMK A01 T02421106  RH  009%=      5-min Rain = 0
KPG1 110430Z 17005KT 24/M11 A299 RMK A01 T02351106  RH  009%=      5-min Rain = 0
KPG1 110431Z 17005KT 23/M11 A299 RMK A01 T02251106  RH  010%=      5-min Rain = 0
KPG1 110432Z 17005KT 22/M11 A299 RMK A01 T02161105  RH  011%=      5-min Rain = 0
KPG1 110433Z 18004KT 21/M10 A299 RMK A01 T02101104  RH  011%=      5-min Rain = 0
KPG1 110434Z 19003KT 21/M11 A299 RMK A01 T02051105  RH  011%=      5-min Rain = 0
KPG1 110435Z 22002KT 20/M10 A299 RMK A01 T02021104  RH  012%=      5-min Rain = 0
KPG1 110436Z 24003KT 20/M10 A299 RMK A01 T02001103  RH  012%=      5-min Rain = 0
KPG1 110437Z 20004KT 20/M10 A299 RMK A01 T01991102  RH  012%=      5-min Rain = 0
KPG1 110438Z 19004KT 20/M10 A299 RMK A01 T01971102  RH  012%=      5-min Rain = 0
KPG1 110439Z 21003KT 20/M10 A2991 RMK A01 T01961101  RH  012%=      5-min Rain = 0
KPG1 110440Z 22003KT 20/M10 A2991 RMK A01 T01951102  RH  013%=      5-min Rain = 0
KPG1 110441Z 21002KT 19/M10 A2991 RMK A01 T01941102  RH  013%=      5-min Rain = 0
KPG1 110442Z 22003KT 19/M10 A2991 RMK A01 T01931101  RH  013%=      5-min Rain = 0
KPG1 110443Z 21003KT 19/M10 A299 RMK A01 T01921101  RH  013%=      5-min Rain = 0
KPG1 110444Z 22003KT 19/M10 A299 RMK A01 T01921101  RH  013%=      5-min Rain = 0
KPG1 110445Z 22003KT 19/M10 A299 RMK A01 T01921101  RH  013%=      5-min Rain = 0
KPG1 110446Z 21003KT 19/M10 A299 RMK A01 T01921101  RH  013%=      5-min Rain = 0
KPG1 110447Z 20003KT 19/M10 A299 RMK A01 T01931101  RH  013%=      5-min Rain = 0
KPG1 110448Z 21003KT 19/M10 A299 RMK A01 T01931100  RH  013%=      5-min Rain = 0
KPG1 110449Z 19003KT 19/M10 A299 RMK A01 T01931101  RH  013%=      5-min Rain = 0
KPG1 110450Z 22003KT 19/M10 A299 RMK A01 T01931100  RH  013%=      5-min Rain = 0
KPG1 110451Z 24003KT 19/M10 A299 RMK A01 T01941100  RH  013%=      5-min Rain = 0
KPG1 110452Z 21003KT 19/M10 A2991 RMK A01 T01931100  RH  013%=      5-min Rain = 0
KPG1 110453Z 21003KT 19/M10 A2991 RMK A01 T01931100  RH  013%=      5-min Rain = 0
KPG1 110454Z 24003KT 19/M10 A2991 RMK A01 T01931100  RH  013%=      5-min Rain = 0
KPG1 110455Z 23003KT 19/M10 A2991 RMK A01 T01921100  RH  013%=      5-min Rain = 0
KPG1 110456Z 22002KT 19/M10 A2991 RMK A01 T01921100  RH  013%=      5-min Rain = 0
KPG1 110457Z 20002KT 19/M10 A2991 RMK A01 T01921100  RH  013%=      5-min Rain = 0
KPG1 110458Z 20002KT 19/M10 A2991 RMK A01 T01921100  RH  013%=      5-min Rain = 0
KPG1 110459Z 20002KT 19/M10 A2991 RMK A01 T01921101  RH  013%=      5-min Rain = 0
KPG1 110500Z 19002KT 19/M10 A2991 RMK A01 T01921102  RH  013%=      5-min Rain = 0
KPG1 110501Z 21001KT 19/M10 A2991 RMK A01 T01921102  RH  013%=      5-min Rain = 0
KPG1 110502Z 29000KT 19/M10 A2991 RMK A01 T01911101  RH  013%=      5-min Rain = 0
KPG1 110503Z 15000KT 19/M10 A2991 RMK A01 T01911101  RH  013%=      5-min Rain = 0
KPG1 110504Z 15001KT 19/M10 A2991 RMK A01 T01901101  RH  013%=      5-min Rain = 0
KPG1 110505Z 17001KT 19/M10 A2991 RMK A01 T01891101  RH  013%=      5-min Rain = 0
KPG1 110506Z 11000KT 19/M10 A2991 RMK A01 T01891100  RH  013%=      5-min Rain = 0
KPG1 110507Z 13001KT 19/M10 A2991 RMK A01 T01881101  RH  013%=      5-min Rain = 0
KPG1 110508Z 15000KT 19/M10 A2991 RMK A01 T01881100  RH  013%=      5-min Rain = 0
KPG1 110509Z 28001KT 19/M10 A2991 RMK A01 T01881100  RH  013%=      5-min Rain = 0
KPG1 110510Z 13001KT 19/M10 A2991 RMK A01 T01881101  RH  013%=      5-min Rain = 0
KPG1 110511Z 15001KT 19/M10 A2991 RMK A01 T01891101  RH  013%=      5-min Rain = 0
KPG1 110512Z 16000KT 19/M10 A2991 RMK A01 T01901101  RH  013%=      5-min Rain = 0
KPG1 110513Z 16001KT 19/M10 A2991 RMK A01 T01901101  RH  013%=      5-min Rain = 0
KPG1 110514Z 18002KT 19/M10 A2991 RMK A01 T01901102  RH  013%=      5-min Rain = 0
KPG1 110515Z 17003KT 19/M10 A2991 RMK A01 T01901102  RH  013%=      5-min Rain = 0
KPG1 110516Z 18002KT 19/M10 A2991 RMK A01 T01901102  RH  013%=      5-min Rain = 0
KPG1 110517Z 17003KT 19/M10 A2991 RMK A01 T01901102  RH  013%=      5-min Rain = 0
KPG1 110518Z 16003KT 19/M10 A2991 RMK A01 T01891103  RH  013%=      5-min Rain = 0
KPG1 110519Z 18003KT 19/M10 A2991 RMK A01 T01901103  RH  013%=      5-min Rain = 0
KPG1 110520Z 19002KT 19/M10 A2991 RMK A01 T01891104  RH  013%=      5-min Rain = 0
KPG1 110521Z 20002KT 19/M11 A2991 RMK A01 T01871105  RH  013%=      5-min Rain = 0
KPG1 110522Z 18004KT 19/M11 A2991 RMK A01 T01871105  RH  013%=      5-min Rain = 0
KPG1 110523Z 20003KT 19/M11 A2991 RMK A01 T01861106  RH  013%=      5-min Rain = 0
KPG1 110524Z 24003KT 19/M11 A2991 RMK A01 T01861106  RH  013%=      5-min Rain = 0
KPG1 110525Z 21003KT 19/M11 A2991 RMK A01 T01861105  RH  013%=      5-min Rain = 0
KPG1 110526Z 20004KT 19/M11 A2991 RMK A01 T01851106  RH  013%=      5-min Rain = 0
KPG1 110527Z 19004KT 19/M11 A2991 RMK A01 T01851106  RH  013%=      5-min Rain = 0
KPG1 110528Z 19005KT 19/M11 A2991 RMK A01 T01851107  RH  013%=      5-min Rain = 0
KPG1 110529Z 19005KT 18/M11 A2991 RMK A01 T01841107  RH  013%=      5-min Rain = 0
KPG1 110530Z 18005KT 18/M11 A2991 RMK A01 T01831107  RH  013%=      5-min Rain = 0
KPG1 110531Z 18004KT 18/M11 A2991 RMK A01 T01831106  RH  013%=      5-min Rain = 0
KPG1 110532Z 18004KT 18/M11 A2991 RMK A01 T01831106  RH  013%=      5-min Rain = 0
KPG1 110533Z 18004KT 18/M11 A2991 RMK A01 T01831106  RH  013%=      5-min Rain = 0
KPG1 110534Z 17005KT 18/M11 A2991 RMK A01 T01831106  RH  013%=      5-min Rain = 0
KPG1 110535Z 19004KT 18/M11 A2992 RMK A01 T01841105  RH  013%=      5-min Rain = 0
KPG1 110536Z 19004KT 19/M11 A2992 RMK A01 T01851105  RH  013%=      5-min Rain = 0
KPG1 110537Z 16003KT 19/M11 A2992 RMK A01 T01851105  RH  013%=      5-min Rain = 0
KPG1 110538Z 17004KT 19/M10 A2992 RMK A01 T01861104  RH  013%=      5-min Rain = 0
KPG1 110539Z 17004KT 19/M10 A2992 RMK A01 T01891104  RH  013%=      5-min Rain = 0
KPG1 110540Z 16005KT 19/M10 A2992 RMK A01 T01911104  RH  013%=      5-min Rain = 0
KPG1 110541Z 17004KT 19/M10 A2992 RMK A01 T01921104  RH  012%=      5-min Rain = 0
KPG1 110542Z 20003KT 19/M11 A2992 RMK A01 T01931105  RH  012%=      5-min Rain = 0
KPG1 110543Z 18004KT 19/M11 A2992 RMK A01 T01931105  RH  012%=      5-min Rain = 0
KPG1 110544Z 18005KT 19/M11 A2992 RMK A01 T01921105  RH  012%=      5-min Rain = 0
KPG1 110545Z 18004KT 19/M11 A2992 RMK A01 T01921105  RH  012%=      5-min Rain = 0
KPG1 110546Z 18005KT 19/M11 A2992 RMK A01 T01921105  RH  012%=      5-min Rain = 0
KPG1 110547Z 17004KT 19/M11 A2992 RMK A01 T01931105  RH  012%=      5-min Rain = 0
KPG1 110548Z 19003KT 19/M11 A2992 RMK A01 T01941105  RH  012%=      5-min Rain = 0
KPG1 110549Z 21003KT 19/M11 A2992 RMK A01 T01941105  RH  012%=      5-min Rain = 0
KPG1 110550Z 20003KT 19/M11 A2992 RMK A01 T01931105  RH  012%=      5-min Rain = 0
KPG1 110551Z 19004KT 19/M11 A2992 RMK A01 T01921105  RH  012%=      5-min Rain = 0
KPG1 110552Z 21004KT 19/M11 A2992 RMK A01 T01921105  RH  012%=      5-min Rain = 0
KPG1 110553Z 19004KT 19/M11 A2992 RMK A01 T01911105  RH  012%=      5-min Rain = 0
KPG1 110554Z 20004KT 19/M11 A2992 RMK A01 T01921105  RH  012%=      5-min Rain = 0
KPG1 110555Z 22003KT 19/M10 A2992 RMK A01 T01931103  RH  012%=      5-min Rain = 0
KPG1 110556Z 20003KT 20/M10 A2993 RMK A01 T01951103  RH  012%=      5-min Rain = 0
KPG1 110557Z 17003KT 20/M10 A2993 RMK A01 T01961103  RH  012%=      5-min Rain = 0
KPG1 110558Z 19003KT 20/M10 A2992 RMK A01 T01981103  RH  012%=      5-min Rain = 0
KPG1 110559Z 23002KT 20/M10 A2992 RMK A01 T02001103  RH  012%=      5-min Rain = 0

Page generated in 0.1408 seconds.